<?xml version="1.0" encoding="UTF-8" standalone="no" ?>
<gpx xmlns="http://www.topografix.com/GPX/1/1" xmlns:xsi="http://www.w3.org/2001/XMLSchema-instance" xsi:schemaLocation="http://www.topografix.com/GPX/1/1 http://www.topografix.com/GPX/1/1/gpx.xsd" version="1.1" creator="VisuGPX - https://www.visugpx.com">
  <metadata>
    <name>Villers Bocage - 13km</name>
    <desc><![CDATA[Walkmeter Marche 21 oct. 2012 09:04:46]]></desc>
  </metadata>
  <trk>
    <name><![CDATA[Chemins en Somme]]></name>
    <trkseg>
      <trkpt lat="49.99557" lon="2.31852">
        <ele>118</ele>
        <time>2012-10-21T07:04:46Z</time>
      </trkpt>
      <trkpt lat="49.99542" lon="2.31846">
        <ele>119.8</ele>
        <time>2012-10-21T07:04:50Z</time>
      </trkpt>
      <trkpt lat="49.99533" lon="2.31843">
        <ele>126.3</ele>
        <time>2012-10-21T07:05:02Z</time>
      </trkpt>
      <trkpt lat="49.9952" lon="2.31833">
        <ele>129.2</ele>
        <time>2012-10-21T07:05:07Z</time>
      </trkpt>
      <trkpt lat="49.9951" lon="2.31831">
        <ele>135.6</ele>
        <time>2012-10-21T07:05:21Z</time>
      </trkpt>
      <trkpt lat="49.995" lon="2.31815">
        <ele>137.7</ele>
        <time>2012-10-21T07:05:34Z</time>
      </trkpt>
      <trkpt lat="49.99488" lon="2.31805">
        <ele>141.6</ele>
        <time>2012-10-21T07:05:45Z</time>
      </trkpt>
      <trkpt lat="49.99476" lon="2.31794">
        <ele>143.9</ele>
        <time>2012-10-21T07:05:53Z</time>
      </trkpt>
      <trkpt lat="49.99464" lon="2.31783">
        <ele>141.7</ele>
        <time>2012-10-21T07:06:04Z</time>
      </trkpt>
      <trkpt lat="49.99452" lon="2.31769">
        <ele>128.1</ele>
        <time>2012-10-21T07:06:15Z</time>
      </trkpt>
      <trkpt lat="49.99438" lon="2.31758">
        <ele>123.1</ele>
        <time>2012-10-21T07:06:24Z</time>
      </trkpt>
      <trkpt lat="49.99425" lon="2.31748">
        <ele>123.1</ele>
        <time>2012-10-21T07:06:34Z</time>
      </trkpt>
      <trkpt lat="49.99413" lon="2.31735">
        <ele>124.2</ele>
        <time>2012-10-21T07:06:44Z</time>
      </trkpt>
      <trkpt lat="49.99403" lon="2.3172">
        <ele>125</ele>
        <time>2012-10-21T07:06:54Z</time>
      </trkpt>
      <trkpt lat="49.9939" lon="2.31709">
        <ele>127.5</ele>
        <time>2012-10-21T07:07:05Z</time>
      </trkpt>
      <trkpt lat="49.99376" lon="2.31698">
        <ele>124.3</ele>
        <time>2012-10-21T07:07:14Z</time>
      </trkpt>
      <trkpt lat="49.99364" lon="2.31683">
        <ele>126.6</ele>
        <time>2012-10-21T07:07:25Z</time>
      </trkpt>
      <trkpt lat="49.99351" lon="2.31672">
        <ele>128.5</ele>
        <time>2012-10-21T07:07:35Z</time>
      </trkpt>
      <trkpt lat="49.99339" lon="2.31663">
        <ele>119.8</ele>
        <time>2012-10-21T07:07:47Z</time>
      </trkpt>
      <trkpt lat="49.99329" lon="2.31657">
        <ele>120.5</ele>
        <time>2012-10-21T07:07:54Z</time>
      </trkpt>
      <trkpt lat="49.9932" lon="2.31638">
        <ele>122.6</ele>
        <time>2012-10-21T07:08:04Z</time>
      </trkpt>
      <trkpt lat="49.99309" lon="2.31623">
        <ele>125.5</ele>
        <time>2012-10-21T07:08:14Z</time>
      </trkpt>
      <trkpt lat="49.99298" lon="2.31611">
        <ele>127.8</ele>
        <time>2012-10-21T07:08:24Z</time>
      </trkpt>
      <trkpt lat="49.99292" lon="2.31605">
        <ele>129</ele>
        <time>2012-10-21T07:08:29Z</time>
      </trkpt>
      <trkpt lat="49.99279" lon="2.31616">
        <ele>126.9</ele>
        <time>2012-10-21T07:08:37Z</time>
      </trkpt>
      <trkpt lat="49.99275" lon="2.31639">
        <ele>123.6</ele>
        <time>2012-10-21T07:08:50Z</time>
      </trkpt>
      <trkpt lat="49.99273" lon="2.31662">
        <ele>126.1</ele>
        <time>2012-10-21T07:08:58Z</time>
      </trkpt>
      <trkpt lat="49.99273" lon="2.31687">
        <ele>127.7</ele>
        <time>2012-10-21T07:09:09Z</time>
      </trkpt>
      <trkpt lat="49.99271" lon="2.31708">
        <ele>125.6</ele>
        <time>2012-10-21T07:09:20Z</time>
      </trkpt>
      <trkpt lat="49.99271" lon="2.31729">
        <ele>127.8</ele>
        <time>2012-10-21T07:09:30Z</time>
      </trkpt>
      <trkpt lat="49.9927" lon="2.31751">
        <ele>130.8</ele>
        <time>2012-10-21T07:09:39Z</time>
      </trkpt>
      <trkpt lat="49.99267" lon="2.31773">
        <ele>128.9</ele>
        <time>2012-10-21T07:09:51Z</time>
      </trkpt>
      <trkpt lat="49.99264" lon="2.31794">
        <ele>131</ele>
        <time>2012-10-21T07:10:01Z</time>
      </trkpt>
      <trkpt lat="49.99261" lon="2.31816">
        <ele>128.1</ele>
        <time>2012-10-21T07:10:11Z</time>
      </trkpt>
      <trkpt lat="49.99255" lon="2.31837">
        <ele>131.8</ele>
        <time>2012-10-21T07:10:24Z</time>
      </trkpt>
      <trkpt lat="49.99251" lon="2.31859">
        <ele>134.2</ele>
        <time>2012-10-21T07:10:34Z</time>
      </trkpt>
      <trkpt lat="49.99245" lon="2.31882">
        <ele>136.8</ele>
        <time>2012-10-21T07:10:45Z</time>
      </trkpt>
      <trkpt lat="49.9924" lon="2.31903">
        <ele>133.3</ele>
        <time>2012-10-21T07:10:56Z</time>
      </trkpt>
      <trkpt lat="49.99238" lon="2.31925">
        <ele>132.8</ele>
        <time>2012-10-21T07:11:08Z</time>
      </trkpt>
      <trkpt lat="49.99234" lon="2.31945">
        <ele>135.9</ele>
        <time>2012-10-21T07:11:16Z</time>
      </trkpt>
      <trkpt lat="49.9923" lon="2.31968">
        <ele>130.5</ele>
        <time>2012-10-21T07:11:28Z</time>
      </trkpt>
      <trkpt lat="49.99224" lon="2.31991">
        <ele>125</ele>
        <time>2012-10-21T07:11:37Z</time>
      </trkpt>
      <trkpt lat="49.99218" lon="2.32011">
        <ele>121.1</ele>
        <time>2012-10-21T07:11:45Z</time>
      </trkpt>
      <trkpt lat="49.99213" lon="2.3203">
        <ele>127.2</ele>
        <time>2012-10-21T07:11:54Z</time>
      </trkpt>
      <trkpt lat="49.99208" lon="2.32051">
        <ele>133.4</ele>
        <time>2012-10-21T07:12:03Z</time>
      </trkpt>
      <trkpt lat="49.99201" lon="2.3207">
        <ele>129.1</ele>
        <time>2012-10-21T07:12:12Z</time>
      </trkpt>
      <trkpt lat="49.99195" lon="2.32089">
        <ele>130.6</ele>
        <time>2012-10-21T07:12:22Z</time>
      </trkpt>
      <trkpt lat="49.99188" lon="2.32108">
        <ele>132.1</ele>
        <time>2012-10-21T07:12:32Z</time>
      </trkpt>
      <trkpt lat="49.99181" lon="2.32127">
        <ele>133.5</ele>
        <time>2012-10-21T07:12:42Z</time>
      </trkpt>
      <trkpt lat="49.99174" lon="2.32145">
        <ele>129.1</ele>
        <time>2012-10-21T07:12:52Z</time>
      </trkpt>
      <trkpt lat="49.99163" lon="2.32164">
        <ele>126.4</ele>
        <time>2012-10-21T07:13:04Z</time>
      </trkpt>
      <trkpt lat="49.99152" lon="2.32182">
        <ele>131.2</ele>
        <time>2012-10-21T07:13:16Z</time>
      </trkpt>
      <trkpt lat="49.99142" lon="2.32195">
        <ele>129.7</ele>
        <time>2012-10-21T07:13:26Z</time>
      </trkpt>
      <trkpt lat="49.9913" lon="2.32208">
        <ele>127.7</ele>
        <time>2012-10-21T07:13:35Z</time>
      </trkpt>
      <trkpt lat="49.99117" lon="2.32221">
        <ele>124.8</ele>
        <time>2012-10-21T07:13:46Z</time>
      </trkpt>
      <trkpt lat="49.99104" lon="2.32234">
        <ele>124.1</ele>
        <time>2012-10-21T07:13:56Z</time>
      </trkpt>
      <trkpt lat="49.99092" lon="2.32246">
        <ele>123</ele>
        <time>2012-10-21T07:14:07Z</time>
      </trkpt>
      <trkpt lat="49.99078" lon="2.32252">
        <ele>116.5</ele>
        <time>2012-10-21T07:14:17Z</time>
      </trkpt>
      <trkpt lat="49.99067" lon="2.32263">
        <ele>114.3</ele>
        <time>2012-10-21T07:14:27Z</time>
      </trkpt>
      <trkpt lat="49.99054" lon="2.32271">
        <ele>120.2</ele>
        <time>2012-10-21T07:14:37Z</time>
      </trkpt>
      <trkpt lat="49.99039" lon="2.32272">
        <ele>123.3</ele>
        <time>2012-10-21T07:14:47Z</time>
      </trkpt>
      <trkpt lat="49.99023" lon="2.32272">
        <ele>123.7</ele>
        <time>2012-10-21T07:14:59Z</time>
      </trkpt>
      <trkpt lat="49.99009" lon="2.32268">
        <ele>124.1</ele>
        <time>2012-10-21T07:15:10Z</time>
      </trkpt>
      <trkpt lat="49.98996" lon="2.32264">
        <ele>119.1</ele>
        <time>2012-10-21T07:15:20Z</time>
      </trkpt>
      <trkpt lat="49.98982" lon="2.3226">
        <ele>122.7</ele>
        <time>2012-10-21T07:15:31Z</time>
      </trkpt>
      <trkpt lat="49.98968" lon="2.32259">
        <ele>123.7</ele>
        <time>2012-10-21T07:15:43Z</time>
      </trkpt>
      <trkpt lat="49.98953" lon="2.32258">
        <ele>124.2</ele>
        <time>2012-10-21T07:15:54Z</time>
      </trkpt>
      <trkpt lat="49.98939" lon="2.32258">
        <ele>121.4</ele>
        <time>2012-10-21T07:16:03Z</time>
      </trkpt>
      <trkpt lat="49.98925" lon="2.32257">
        <ele>119</ele>
        <time>2012-10-21T07:16:12Z</time>
      </trkpt>
      <trkpt lat="49.98911" lon="2.32255">
        <ele>117</ele>
        <time>2012-10-21T07:16:22Z</time>
      </trkpt>
      <trkpt lat="49.98897" lon="2.32255">
        <ele>115.6</ele>
        <time>2012-10-21T07:16:32Z</time>
      </trkpt>
      <trkpt lat="49.98883" lon="2.32257">
        <ele>120.3</ele>
        <time>2012-10-21T07:16:43Z</time>
      </trkpt>
      <trkpt lat="49.9887" lon="2.32261">
        <ele>122.9</ele>
        <time>2012-10-21T07:16:53Z</time>
      </trkpt>
      <trkpt lat="49.98856" lon="2.32262">
        <ele>122.4</ele>
        <time>2012-10-21T07:17:01Z</time>
      </trkpt>
      <trkpt lat="49.98848" lon="2.32264">
        <ele>121</ele>
        <time>2012-10-21T07:17:07Z</time>
      </trkpt>
      <trkpt lat="49.98834" lon="2.32263">
        <ele>113</ele>
        <time>2012-10-21T07:17:19Z</time>
      </trkpt>
      <trkpt lat="49.98819" lon="2.32265">
        <ele>113.8</ele>
        <time>2012-10-21T07:17:29Z</time>
      </trkpt>
      <trkpt lat="49.98804" lon="2.32271">
        <ele>116.2</ele>
        <time>2012-10-21T07:17:40Z</time>
      </trkpt>
      <trkpt lat="49.98789" lon="2.32273">
        <ele>120.8</ele>
        <time>2012-10-21T07:17:52Z</time>
      </trkpt>
      <trkpt lat="49.98773" lon="2.32276">
        <ele>126.9</ele>
        <time>2012-10-21T07:18:03Z</time>
      </trkpt>
      <trkpt lat="49.98757" lon="2.32279">
        <ele>122.9</ele>
        <time>2012-10-21T07:18:15Z</time>
      </trkpt>
      <trkpt lat="49.98749" lon="2.32278">
        <ele>123.9</ele>
        <time>2012-10-21T07:18:26Z</time>
      </trkpt>
      <trkpt lat="49.98734" lon="2.32277">
        <ele>120.4</ele>
        <time>2012-10-21T07:18:37Z</time>
      </trkpt>
      <trkpt lat="49.9872" lon="2.32284">
        <ele>123.4</ele>
        <time>2012-10-21T07:18:47Z</time>
      </trkpt>
      <trkpt lat="49.98706" lon="2.32287">
        <ele>127.4</ele>
        <time>2012-10-21T07:18:56Z</time>
      </trkpt>
      <trkpt lat="49.98693" lon="2.32291">
        <ele>125.4</ele>
        <time>2012-10-21T07:19:06Z</time>
      </trkpt>
      <trkpt lat="49.98679" lon="2.32298">
        <ele>120.8</ele>
        <time>2012-10-21T07:19:15Z</time>
      </trkpt>
      <trkpt lat="49.98664" lon="2.32301">
        <ele>118.7</ele>
        <time>2012-10-21T07:19:26Z</time>
      </trkpt>
      <trkpt lat="49.98651" lon="2.32309">
        <ele>117.1</ele>
        <time>2012-10-21T07:19:38Z</time>
      </trkpt>
      <trkpt lat="49.98638" lon="2.32311">
        <ele>127.3</ele>
        <time>2012-10-21T07:19:49Z</time>
      </trkpt>
      <trkpt lat="49.98624" lon="2.32313">
        <ele>126</ele>
        <time>2012-10-21T07:20:00Z</time>
      </trkpt>
      <trkpt lat="49.9861" lon="2.32315">
        <ele>124.7</ele>
        <time>2012-10-21T07:20:11Z</time>
      </trkpt>
      <trkpt lat="49.98596" lon="2.32312">
        <ele>116.8</ele>
        <time>2012-10-21T07:20:25Z</time>
      </trkpt>
      <trkpt lat="49.98582" lon="2.32316">
        <ele>125.6</ele>
        <time>2012-10-21T07:20:38Z</time>
      </trkpt>
      <trkpt lat="49.98567" lon="2.32318">
        <ele>123.7</ele>
        <time>2012-10-21T07:20:49Z</time>
      </trkpt>
      <trkpt lat="49.98554" lon="2.32324">
        <ele>127.5</ele>
        <time>2012-10-21T07:20:59Z</time>
      </trkpt>
      <trkpt lat="49.9854" lon="2.32328">
        <ele>120.7</ele>
        <time>2012-10-21T07:21:10Z</time>
      </trkpt>
      <trkpt lat="49.98527" lon="2.32336">
        <ele>126.4</ele>
        <time>2012-10-21T07:21:20Z</time>
      </trkpt>
      <trkpt lat="49.98513" lon="2.32342">
        <ele>129.3</ele>
        <time>2012-10-21T07:21:31Z</time>
      </trkpt>
      <trkpt lat="49.98498" lon="2.32344">
        <ele>130.6</ele>
        <time>2012-10-21T07:21:41Z</time>
      </trkpt>
      <trkpt lat="49.98485" lon="2.32348">
        <ele>135.6</ele>
        <time>2012-10-21T07:21:49Z</time>
      </trkpt>
      <trkpt lat="49.98471" lon="2.32354">
        <ele>137.4</ele>
        <time>2012-10-21T07:21:58Z</time>
      </trkpt>
      <trkpt lat="49.98457" lon="2.32356">
        <ele>131.4</ele>
        <time>2012-10-21T07:22:10Z</time>
      </trkpt>
      <trkpt lat="49.98443" lon="2.32358">
        <ele>128.7</ele>
        <time>2012-10-21T07:22:23Z</time>
      </trkpt>
      <trkpt lat="49.98429" lon="2.32362">
        <ele>129.5</ele>
        <time>2012-10-21T07:22:32Z</time>
      </trkpt>
      <trkpt lat="49.98415" lon="2.32367">
        <ele>128.6</ele>
        <time>2012-10-21T07:22:39Z</time>
      </trkpt>
      <trkpt lat="49.98401" lon="2.32374">
        <ele>122.2</ele>
        <time>2012-10-21T07:22:48Z</time>
      </trkpt>
      <trkpt lat="49.98387" lon="2.32379">
        <ele>120.8</ele>
        <time>2012-10-21T07:22:55Z</time>
      </trkpt>
      <trkpt lat="49.98374" lon="2.32385">
        <ele>120.1</ele>
        <time>2012-10-21T07:23:02Z</time>
      </trkpt>
      <trkpt lat="49.98358" lon="2.32385">
        <ele>120.6</ele>
        <time>2012-10-21T07:23:19Z</time>
      </trkpt>
      <trkpt lat="49.98343" lon="2.32386">
        <ele>129.6</ele>
        <time>2012-10-21T07:23:27Z</time>
      </trkpt>
      <trkpt lat="49.98329" lon="2.32393">
        <ele>120.9</ele>
        <time>2012-10-21T07:23:35Z</time>
      </trkpt>
      <trkpt lat="49.98315" lon="2.32397">
        <ele>121.5</ele>
        <time>2012-10-21T07:23:44Z</time>
      </trkpt>
      <trkpt lat="49.98309" lon="2.32395">
        <ele>123.1</ele>
        <time>2012-10-21T07:23:48Z</time>
      </trkpt>
      <trkpt lat="49.9831" lon="2.32393">
        <ele>123.8</ele>
        <time>2012-10-21T07:23:49Z</time>
      </trkpt>
      <trkpt lat="49.98296" lon="2.32387">
        <ele>127.5</ele>
        <time>2012-10-21T07:24:00Z</time>
      </trkpt>
      <trkpt lat="49.98299" lon="2.32377">
        <ele>124.5</ele>
        <time>2012-10-21T07:24:04Z</time>
      </trkpt>
      <trkpt lat="49.98284" lon="2.32376">
        <ele>118.4</ele>
        <time>2012-10-21T07:24:12Z</time>
      </trkpt>
      <trkpt lat="49.98273" lon="2.32364">
        <ele>119.9</ele>
        <time>2012-10-21T07:24:21Z</time>
      </trkpt>
      <trkpt lat="49.9826" lon="2.32353">
        <ele>122.3</ele>
        <time>2012-10-21T07:24:32Z</time>
      </trkpt>
      <trkpt lat="49.98245" lon="2.32345">
        <ele>122</ele>
        <time>2012-10-21T07:24:44Z</time>
      </trkpt>
      <trkpt lat="49.9823" lon="2.3234">
        <ele>119.6</ele>
        <time>2012-10-21T07:24:52Z</time>
      </trkpt>
      <trkpt lat="49.98216" lon="2.32336">
        <ele>116</ele>
        <time>2012-10-21T07:25:00Z</time>
      </trkpt>
      <trkpt lat="49.98202" lon="2.3234">
        <ele>116.2</ele>
        <time>2012-10-21T07:25:07Z</time>
      </trkpt>
      <trkpt lat="49.98187" lon="2.32338">
        <ele>114.9</ele>
        <time>2012-10-21T07:25:17Z</time>
      </trkpt>
      <trkpt lat="49.98175" lon="2.32331">
        <ele>109.8</ele>
        <time>2012-10-21T07:25:26Z</time>
      </trkpt>
      <trkpt lat="49.9816" lon="2.32324">
        <ele>114</ele>
        <time>2012-10-21T07:25:36Z</time>
      </trkpt>
      <trkpt lat="49.98146" lon="2.32315">
        <ele>110.1</ele>
        <time>2012-10-21T07:25:46Z</time>
      </trkpt>
      <trkpt lat="49.98132" lon="2.32311">
        <ele>110.3</ele>
        <time>2012-10-21T07:25:55Z</time>
      </trkpt>
      <trkpt lat="49.98122" lon="2.32296">
        <ele>114.2</ele>
        <time>2012-10-21T07:26:05Z</time>
      </trkpt>
      <trkpt lat="49.98122" lon="2.32274">
        <ele>112.7</ele>
        <time>2012-10-21T07:26:15Z</time>
      </trkpt>
      <trkpt lat="49.98118" lon="2.32254">
        <ele>117.7</ele>
        <time>2012-10-21T07:26:26Z</time>
      </trkpt>
      <trkpt lat="49.98103" lon="2.32246">
        <ele>112.6</ele>
        <time>2012-10-21T07:26:36Z</time>
      </trkpt>
      <trkpt lat="49.98089" lon="2.32243">
        <ele>115.3</ele>
        <time>2012-10-21T07:26:45Z</time>
      </trkpt>
      <trkpt lat="49.98075" lon="2.32237">
        <ele>119.2</ele>
        <time>2012-10-21T07:26:55Z</time>
      </trkpt>
      <trkpt lat="49.98059" lon="2.3223">
        <ele>118.6</ele>
        <time>2012-10-21T07:27:05Z</time>
      </trkpt>
      <trkpt lat="49.98044" lon="2.32227">
        <ele>121.9</ele>
        <time>2012-10-21T07:27:13Z</time>
      </trkpt>
      <trkpt lat="49.9803" lon="2.32222">
        <ele>120.1</ele>
        <time>2012-10-21T07:27:22Z</time>
      </trkpt>
      <trkpt lat="49.98015" lon="2.32218">
        <ele>121.9</ele>
        <time>2012-10-21T07:27:30Z</time>
      </trkpt>
      <trkpt lat="49.98001" lon="2.32217">
        <ele>120.9</ele>
        <time>2012-10-21T07:27:36Z</time>
      </trkpt>
      <trkpt lat="49.97986" lon="2.32218">
        <ele>115.7</ele>
        <time>2012-10-21T07:27:43Z</time>
      </trkpt>
      <trkpt lat="49.97973" lon="2.32217">
        <ele>112.9</ele>
        <time>2012-10-21T07:27:50Z</time>
      </trkpt>
      <trkpt lat="49.97959" lon="2.32218">
        <ele>113.1</ele>
        <time>2012-10-21T07:27:58Z</time>
      </trkpt>
      <trkpt lat="49.97945" lon="2.32216">
        <ele>116.8</ele>
        <time>2012-10-21T07:28:05Z</time>
      </trkpt>
      <trkpt lat="49.97931" lon="2.32212">
        <ele>119.8</ele>
        <time>2012-10-21T07:28:14Z</time>
      </trkpt>
      <trkpt lat="49.97918" lon="2.32206">
        <ele>113.3</ele>
        <time>2012-10-21T07:28:23Z</time>
      </trkpt>
      <trkpt lat="49.97903" lon="2.32201">
        <ele>113.6</ele>
        <time>2012-10-21T07:28:33Z</time>
      </trkpt>
      <trkpt lat="49.9789" lon="2.32193">
        <ele>113</ele>
        <time>2012-10-21T07:28:42Z</time>
      </trkpt>
      <trkpt lat="49.97875" lon="2.32192">
        <ele>109.5</ele>
        <time>2012-10-21T07:28:51Z</time>
      </trkpt>
      <trkpt lat="49.97861" lon="2.32188">
        <ele>108.5</ele>
        <time>2012-10-21T07:28:59Z</time>
      </trkpt>
      <trkpt lat="49.97848" lon="2.32184">
        <ele>110.8</ele>
        <time>2012-10-21T07:29:07Z</time>
      </trkpt>
      <trkpt lat="49.97834" lon="2.32176">
        <ele>107.4</ele>
        <time>2012-10-21T07:29:18Z</time>
      </trkpt>
      <trkpt lat="49.9782" lon="2.32169">
        <ele>110.7</ele>
        <time>2012-10-21T07:29:27Z</time>
      </trkpt>
      <trkpt lat="49.97805" lon="2.32162">
        <ele>107.7</ele>
        <time>2012-10-21T07:29:37Z</time>
      </trkpt>
      <trkpt lat="49.97793" lon="2.32153">
        <ele>104.2</ele>
        <time>2012-10-21T07:29:46Z</time>
      </trkpt>
      <trkpt lat="49.9778" lon="2.32145">
        <ele>101.1</ele>
        <time>2012-10-21T07:29:56Z</time>
      </trkpt>
      <trkpt lat="49.97767" lon="2.32139">
        <ele>102.6</ele>
        <time>2012-10-21T07:30:05Z</time>
      </trkpt>
      <trkpt lat="49.97754" lon="2.32134">
        <ele>106.6</ele>
        <time>2012-10-21T07:30:14Z</time>
      </trkpt>
      <trkpt lat="49.9774" lon="2.32129">
        <ele>107.5</ele>
        <time>2012-10-21T07:30:24Z</time>
      </trkpt>
      <trkpt lat="49.97726" lon="2.32123">
        <ele>104.5</ele>
        <time>2012-10-21T07:30:35Z</time>
      </trkpt>
      <trkpt lat="49.97715" lon="2.32111">
        <ele>105.3</ele>
        <time>2012-10-21T07:30:46Z</time>
      </trkpt>
      <trkpt lat="49.97702" lon="2.32101">
        <ele>106.2</ele>
        <time>2012-10-21T07:30:56Z</time>
      </trkpt>
      <trkpt lat="49.97688" lon="2.32095">
        <ele>107.2</ele>
        <time>2012-10-21T07:31:06Z</time>
      </trkpt>
      <trkpt lat="49.97674" lon="2.32089">
        <ele>106.5</ele>
        <time>2012-10-21T07:31:14Z</time>
      </trkpt>
      <trkpt lat="49.97661" lon="2.32085">
        <ele>103.1</ele>
        <time>2012-10-21T07:31:23Z</time>
      </trkpt>
      <trkpt lat="49.97647" lon="2.32079">
        <ele>99.7</ele>
        <time>2012-10-21T07:31:32Z</time>
      </trkpt>
      <trkpt lat="49.97633" lon="2.32076">
        <ele>102.7</ele>
        <time>2012-10-21T07:31:43Z</time>
      </trkpt>
      <trkpt lat="49.97618" lon="2.32076">
        <ele>101.7</ele>
        <time>2012-10-21T07:31:54Z</time>
      </trkpt>
      <trkpt lat="49.97604" lon="2.32074">
        <ele>97.2</ele>
        <time>2012-10-21T07:32:04Z</time>
      </trkpt>
      <trkpt lat="49.9759" lon="2.32068">
        <ele>92.4</ele>
        <time>2012-10-21T07:32:16Z</time>
      </trkpt>
      <trkpt lat="49.97576" lon="2.32067">
        <ele>96.8</ele>
        <time>2012-10-21T07:32:27Z</time>
      </trkpt>
      <trkpt lat="49.97561" lon="2.32066">
        <ele>94.2</ele>
        <time>2012-10-21T07:32:38Z</time>
      </trkpt>
      <trkpt lat="49.97547" lon="2.32061">
        <ele>88.8</ele>
        <time>2012-10-21T07:32:47Z</time>
      </trkpt>
      <trkpt lat="49.97532" lon="2.3206">
        <ele>92.1</ele>
        <time>2012-10-21T07:32:55Z</time>
      </trkpt>
      <trkpt lat="49.97499" lon="2.32057">
        <ele>95.1</ele>
        <time>2012-10-21T07:33:14Z</time>
      </trkpt>
      <trkpt lat="49.97499" lon="2.32057">
        <ele>95.1</ele>
        <time>2012-10-21T07:40:07Z</time>
      </trkpt>
      <trkpt lat="49.97482" lon="2.32053">
        <ele>96.7</ele>
        <time>2012-10-21T07:40:10Z</time>
      </trkpt>
      <trkpt lat="49.97467" lon="2.32052">
        <ele>95.6</ele>
        <time>2012-10-21T07:40:21Z</time>
      </trkpt>
      <trkpt lat="49.97453" lon="2.32051">
        <ele>94.9</ele>
        <time>2012-10-21T07:40:31Z</time>
      </trkpt>
      <trkpt lat="49.97439" lon="2.32048">
        <ele>96.2</ele>
        <time>2012-10-21T07:40:41Z</time>
      </trkpt>
      <trkpt lat="49.97425" lon="2.32045">
        <ele>93.8</ele>
        <time>2012-10-21T07:40:52Z</time>
      </trkpt>
      <trkpt lat="49.9741" lon="2.32042">
        <ele>95.5</ele>
        <time>2012-10-21T07:41:03Z</time>
      </trkpt>
      <trkpt lat="49.974" lon="2.32057">
        <ele>97.7</ele>
        <time>2012-10-21T07:41:14Z</time>
      </trkpt>
      <trkpt lat="49.974" lon="2.32079">
        <ele>96.9</ele>
        <time>2012-10-21T07:41:24Z</time>
      </trkpt>
      <trkpt lat="49.974" lon="2.32101">
        <ele>95.3</ele>
        <time>2012-10-21T07:41:34Z</time>
      </trkpt>
      <trkpt lat="49.97401" lon="2.32126">
        <ele>96.1</ele>
        <time>2012-10-21T07:41:47Z</time>
      </trkpt>
      <trkpt lat="49.97402" lon="2.32147">
        <ele>96.5</ele>
        <time>2012-10-21T07:41:55Z</time>
      </trkpt>
      <trkpt lat="49.97403" lon="2.32173">
        <ele>97.7</ele>
        <time>2012-10-21T07:42:07Z</time>
      </trkpt>
      <trkpt lat="49.97404" lon="2.32197">
        <ele>98.8</ele>
        <time>2012-10-21T07:42:18Z</time>
      </trkpt>
      <trkpt lat="49.97401" lon="2.32219">
        <ele>96.8</ele>
        <time>2012-10-21T07:42:27Z</time>
      </trkpt>
      <trkpt lat="49.97401" lon="2.32243">
        <ele>94.8</ele>
        <time>2012-10-21T07:42:36Z</time>
      </trkpt>
      <trkpt lat="49.97403" lon="2.32265">
        <ele>96.5</ele>
        <time>2012-10-21T07:42:45Z</time>
      </trkpt>
      <trkpt lat="49.97406" lon="2.32287">
        <ele>100.1</ele>
        <time>2012-10-21T07:42:56Z</time>
      </trkpt>
      <trkpt lat="49.97408" lon="2.32308">
        <ele>102.9</ele>
        <time>2012-10-21T07:43:08Z</time>
      </trkpt>
      <trkpt lat="49.97407" lon="2.32329">
        <ele>99.1</ele>
        <time>2012-10-21T07:43:17Z</time>
      </trkpt>
      <trkpt lat="49.97408" lon="2.32351">
        <ele>93.4</ele>
        <time>2012-10-21T07:43:25Z</time>
      </trkpt>
      <trkpt lat="49.97409" lon="2.32374">
        <ele>93.3</ele>
        <time>2012-10-21T07:43:33Z</time>
      </trkpt>
      <trkpt lat="49.97408" lon="2.32396">
        <ele>95.9</ele>
        <time>2012-10-21T07:43:44Z</time>
      </trkpt>
      <trkpt lat="49.97408" lon="2.32417">
        <ele>98</ele>
        <time>2012-10-21T07:43:53Z</time>
      </trkpt>
      <trkpt lat="49.97412" lon="2.32438">
        <ele>101.2</ele>
        <time>2012-10-21T07:44:03Z</time>
      </trkpt>
      <trkpt lat="49.97412" lon="2.3246">
        <ele>101</ele>
        <time>2012-10-21T07:44:11Z</time>
      </trkpt>
      <trkpt lat="49.9741" lon="2.32481">
        <ele>94</ele>
        <time>2012-10-21T07:44:20Z</time>
      </trkpt>
      <trkpt lat="49.97411" lon="2.32502">
        <ele>82.7</ele>
        <time>2012-10-21T07:44:33Z</time>
      </trkpt>
      <trkpt lat="49.97411" lon="2.32524">
        <ele>82.4</ele>
        <time>2012-10-21T07:44:42Z</time>
      </trkpt>
      <trkpt lat="49.97412" lon="2.32547">
        <ele>86.5</ele>
        <time>2012-10-21T07:44:52Z</time>
      </trkpt>
      <trkpt lat="49.97416" lon="2.32567">
        <ele>90.8</ele>
        <time>2012-10-21T07:45:02Z</time>
      </trkpt>
      <trkpt lat="49.97416" lon="2.32589">
        <ele>93.8</ele>
        <time>2012-10-21T07:45:10Z</time>
      </trkpt>
      <trkpt lat="49.97413" lon="2.32611">
        <ele>89.2</ele>
        <time>2012-10-21T07:45:22Z</time>
      </trkpt>
      <trkpt lat="49.97407" lon="2.32621">
        <ele>87.3</ele>
        <time>2012-10-21T07:45:30Z</time>
      </trkpt>
      <trkpt lat="49.97392" lon="2.32621">
        <ele>91.3</ele>
        <time>2012-10-21T07:45:39Z</time>
      </trkpt>
      <trkpt lat="49.97379" lon="2.32625">
        <ele>93.8</ele>
        <time>2012-10-21T07:45:46Z</time>
      </trkpt>
      <trkpt lat="49.97364" lon="2.32634">
        <ele>90</ele>
        <time>2012-10-21T07:45:58Z</time>
      </trkpt>
      <trkpt lat="49.9735" lon="2.32641">
        <ele>89.3</ele>
        <time>2012-10-21T07:46:09Z</time>
      </trkpt>
      <trkpt lat="49.97334" lon="2.32646">
        <ele>89.7</ele>
        <time>2012-10-21T07:46:19Z</time>
      </trkpt>
      <trkpt lat="49.9732" lon="2.3265">
        <ele>85.4</ele>
        <time>2012-10-21T07:46:29Z</time>
      </trkpt>
      <trkpt lat="49.97306" lon="2.32655">
        <ele>90.5</ele>
        <time>2012-10-21T07:46:42Z</time>
      </trkpt>
      <trkpt lat="49.97293" lon="2.3266">
        <ele>89.3</ele>
        <time>2012-10-21T07:46:50Z</time>
      </trkpt>
      <trkpt lat="49.97277" lon="2.32663">
        <ele>89.1</ele>
        <time>2012-10-21T07:47:00Z</time>
      </trkpt>
      <trkpt lat="49.97263" lon="2.32665">
        <ele>90.5</ele>
        <time>2012-10-21T07:47:08Z</time>
      </trkpt>
      <trkpt lat="49.97249" lon="2.32662">
        <ele>92.2</ele>
        <time>2012-10-21T07:47:18Z</time>
      </trkpt>
      <trkpt lat="49.97234" lon="2.32658">
        <ele>92.8</ele>
        <time>2012-10-21T07:47:29Z</time>
      </trkpt>
      <trkpt lat="49.9722" lon="2.32658">
        <ele>90.1</ele>
        <time>2012-10-21T07:47:40Z</time>
      </trkpt>
      <trkpt lat="49.97206" lon="2.3266">
        <ele>91.5</ele>
        <time>2012-10-21T07:47:49Z</time>
      </trkpt>
      <trkpt lat="49.97192" lon="2.32657">
        <ele>94.1</ele>
        <time>2012-10-21T07:48:00Z</time>
      </trkpt>
      <trkpt lat="49.97177" lon="2.32658">
        <ele>93</ele>
        <time>2012-10-21T07:48:10Z</time>
      </trkpt>
      <trkpt lat="49.97162" lon="2.32661">
        <ele>96</ele>
        <time>2012-10-21T07:48:19Z</time>
      </trkpt>
      <trkpt lat="49.97148" lon="2.32659">
        <ele>97.2</ele>
        <time>2012-10-21T07:48:28Z</time>
      </trkpt>
      <trkpt lat="49.97132" lon="2.3266">
        <ele>96.1</ele>
        <time>2012-10-21T07:48:38Z</time>
      </trkpt>
      <trkpt lat="49.97118" lon="2.32658">
        <ele>95.8</ele>
        <time>2012-10-21T07:48:47Z</time>
      </trkpt>
      <trkpt lat="49.97104" lon="2.32657">
        <ele>95.6</ele>
        <time>2012-10-21T07:48:56Z</time>
      </trkpt>
      <trkpt lat="49.9709" lon="2.32656">
        <ele>95.3</ele>
        <time>2012-10-21T07:49:07Z</time>
      </trkpt>
      <trkpt lat="49.97075" lon="2.32653">
        <ele>96.6</ele>
        <time>2012-10-21T07:49:18Z</time>
      </trkpt>
      <trkpt lat="49.97061" lon="2.32647">
        <ele>99.6</ele>
        <time>2012-10-21T07:49:28Z</time>
      </trkpt>
      <trkpt lat="49.97046" lon="2.32646">
        <ele>101.9</ele>
        <time>2012-10-21T07:49:39Z</time>
      </trkpt>
      <trkpt lat="49.97032" lon="2.32641">
        <ele>98.3</ele>
        <time>2012-10-21T07:49:51Z</time>
      </trkpt>
      <trkpt lat="49.97017" lon="2.32639">
        <ele>95.7</ele>
        <time>2012-10-21T07:50:00Z</time>
      </trkpt>
      <trkpt lat="49.97004" lon="2.32641">
        <ele>94.3</ele>
        <time>2012-10-21T07:50:10Z</time>
      </trkpt>
      <trkpt lat="49.9699" lon="2.32643">
        <ele>93.7</ele>
        <time>2012-10-21T07:50:19Z</time>
      </trkpt>
      <trkpt lat="49.96975" lon="2.3264">
        <ele>93.7</ele>
        <time>2012-10-21T07:50:28Z</time>
      </trkpt>
      <trkpt lat="49.96959" lon="2.32637">
        <ele>95.2</ele>
        <time>2012-10-21T07:50:40Z</time>
      </trkpt>
      <trkpt lat="49.96946" lon="2.32633">
        <ele>97.4</ele>
        <time>2012-10-21T07:50:49Z</time>
      </trkpt>
      <trkpt lat="49.96932" lon="2.32625">
        <ele>97.9</ele>
        <time>2012-10-21T07:51:00Z</time>
      </trkpt>
      <trkpt lat="49.96918" lon="2.32622">
        <ele>92.6</ele>
        <time>2012-10-21T07:51:09Z</time>
      </trkpt>
      <trkpt lat="49.96905" lon="2.32614">
        <ele>89.8</ele>
        <time>2012-10-21T07:51:21Z</time>
      </trkpt>
      <trkpt lat="49.96891" lon="2.32605">
        <ele>94.9</ele>
        <time>2012-10-21T07:51:32Z</time>
      </trkpt>
      <trkpt lat="49.96875" lon="2.326">
        <ele>99.3</ele>
        <time>2012-10-21T07:51:42Z</time>
      </trkpt>
      <trkpt lat="49.96864" lon="2.32591">
        <ele>100.8</ele>
        <time>2012-10-21T07:51:52Z</time>
      </trkpt>
      <trkpt lat="49.96852" lon="2.32578">
        <ele>97</ele>
        <time>2012-10-21T07:52:03Z</time>
      </trkpt>
      <trkpt lat="49.96841" lon="2.32566">
        <ele>96.4</ele>
        <time>2012-10-21T07:52:12Z</time>
      </trkpt>
      <trkpt lat="49.96828" lon="2.32552">
        <ele>100.7</ele>
        <time>2012-10-21T07:52:21Z</time>
      </trkpt>
      <trkpt lat="49.96816" lon="2.32541">
        <ele>97.7</ele>
        <time>2012-10-21T07:52:31Z</time>
      </trkpt>
      <trkpt lat="49.96805" lon="2.32528">
        <ele>98.1</ele>
        <time>2012-10-21T07:52:41Z</time>
      </trkpt>
      <trkpt lat="49.96794" lon="2.32513">
        <ele>92.3</ele>
        <time>2012-10-21T07:52:53Z</time>
      </trkpt>
      <trkpt lat="49.96781" lon="2.32499">
        <ele>90.1</ele>
        <time>2012-10-21T07:53:03Z</time>
      </trkpt>
      <trkpt lat="49.9677" lon="2.32484">
        <ele>91.6</ele>
        <time>2012-10-21T07:53:11Z</time>
      </trkpt>
      <trkpt lat="49.96758" lon="2.32475">
        <ele>88.2</ele>
        <time>2012-10-21T07:53:20Z</time>
      </trkpt>
      <trkpt lat="49.96744" lon="2.32467">
        <ele>82.8</ele>
        <time>2012-10-21T07:53:31Z</time>
      </trkpt>
      <trkpt lat="49.96732" lon="2.32452">
        <ele>85.8</ele>
        <time>2012-10-21T07:53:42Z</time>
      </trkpt>
      <trkpt lat="49.96721" lon="2.32436">
        <ele>89.5</ele>
        <time>2012-10-21T07:53:50Z</time>
      </trkpt>
      <trkpt lat="49.96709" lon="2.32426">
        <ele>93</ele>
        <time>2012-10-21T07:53:59Z</time>
      </trkpt>
      <trkpt lat="49.96693" lon="2.32419">
        <ele>97.2</ele>
        <time>2012-10-21T07:54:11Z</time>
      </trkpt>
      <trkpt lat="49.9668" lon="2.32414">
        <ele>96.3</ele>
        <time>2012-10-21T07:54:19Z</time>
      </trkpt>
      <trkpt lat="49.96662" lon="2.32406">
        <ele>98.6</ele>
        <time>2012-10-21T07:54:27Z</time>
      </trkpt>
      <trkpt lat="49.96649" lon="2.32397">
        <ele>103.7</ele>
        <time>2012-10-21T07:54:39Z</time>
      </trkpt>
      <trkpt lat="49.96634" lon="2.32389">
        <ele>99.5</ele>
        <time>2012-10-21T07:54:50Z</time>
      </trkpt>
      <trkpt lat="49.96622" lon="2.32379">
        <ele>88.6</ele>
        <time>2012-10-21T07:54:59Z</time>
      </trkpt>
      <trkpt lat="49.96608" lon="2.32375">
        <ele>90.6</ele>
        <time>2012-10-21T07:55:09Z</time>
      </trkpt>
      <trkpt lat="49.96595" lon="2.32366">
        <ele>93.8</ele>
        <time>2012-10-21T07:55:19Z</time>
      </trkpt>
      <trkpt lat="49.96583" lon="2.32356">
        <ele>92.5</ele>
        <time>2012-10-21T07:55:30Z</time>
      </trkpt>
      <trkpt lat="49.96567" lon="2.32347">
        <ele>89.5</ele>
        <time>2012-10-21T07:55:40Z</time>
      </trkpt>
      <trkpt lat="49.96555" lon="2.32338">
        <ele>91.8</ele>
        <time>2012-10-21T07:55:50Z</time>
      </trkpt>
      <trkpt lat="49.96543" lon="2.32327">
        <ele>93.4</ele>
        <time>2012-10-21T07:55:57Z</time>
      </trkpt>
      <trkpt lat="49.9653" lon="2.32316">
        <ele>88.9</ele>
        <time>2012-10-21T07:56:08Z</time>
      </trkpt>
      <trkpt lat="49.96518" lon="2.32305">
        <ele>92.8</ele>
        <time>2012-10-21T07:56:19Z</time>
      </trkpt>
      <trkpt lat="49.96504" lon="2.32295">
        <ele>96</ele>
        <time>2012-10-21T07:56:28Z</time>
      </trkpt>
      <trkpt lat="49.96491" lon="2.32286">
        <ele>97.6</ele>
        <time>2012-10-21T07:56:39Z</time>
      </trkpt>
      <trkpt lat="49.96479" lon="2.32275">
        <ele>100.1</ele>
        <time>2012-10-21T07:56:48Z</time>
      </trkpt>
      <trkpt lat="49.96466" lon="2.32265">
        <ele>93.3</ele>
        <time>2012-10-21T07:57:00Z</time>
      </trkpt>
      <trkpt lat="49.96455" lon="2.32254">
        <ele>93.7</ele>
        <time>2012-10-21T07:57:09Z</time>
      </trkpt>
      <trkpt lat="49.96442" lon="2.32244">
        <ele>93.9</ele>
        <time>2012-10-21T07:57:18Z</time>
      </trkpt>
      <trkpt lat="49.9643" lon="2.32231">
        <ele>94</ele>
        <time>2012-10-21T07:57:28Z</time>
      </trkpt>
      <trkpt lat="49.96416" lon="2.32217">
        <ele>94</ele>
        <time>2012-10-21T07:57:38Z</time>
      </trkpt>
      <trkpt lat="49.96405" lon="2.32205">
        <ele>94</ele>
        <time>2012-10-21T07:57:49Z</time>
      </trkpt>
      <trkpt lat="49.96393" lon="2.32193">
        <ele>90.8</ele>
        <time>2012-10-21T07:57:59Z</time>
      </trkpt>
      <trkpt lat="49.96381" lon="2.3218">
        <ele>92.9</ele>
        <time>2012-10-21T07:58:09Z</time>
      </trkpt>
      <trkpt lat="49.96368" lon="2.32169">
        <ele>94.8</ele>
        <time>2012-10-21T07:58:18Z</time>
      </trkpt>
      <trkpt lat="49.96356" lon="2.3215">
        <ele>95.3</ele>
        <time>2012-10-21T07:58:32Z</time>
      </trkpt>
      <trkpt lat="49.96345" lon="2.32136">
        <ele>94</ele>
        <time>2012-10-21T07:58:42Z</time>
      </trkpt>
      <trkpt lat="49.96333" lon="2.32121">
        <ele>95.8</ele>
        <time>2012-10-21T07:58:51Z</time>
      </trkpt>
      <trkpt lat="49.96323" lon="2.32104">
        <ele>96.2</ele>
        <time>2012-10-21T07:59:01Z</time>
      </trkpt>
      <trkpt lat="49.96311" lon="2.32092">
        <ele>89.7</ele>
        <time>2012-10-21T07:59:13Z</time>
      </trkpt>
      <trkpt lat="49.96299" lon="2.3208">
        <ele>88.8</ele>
        <time>2012-10-21T07:59:22Z</time>
      </trkpt>
      <trkpt lat="49.96286" lon="2.32069">
        <ele>91.2</ele>
        <time>2012-10-21T07:59:32Z</time>
      </trkpt>
      <trkpt lat="49.96275" lon="2.32055">
        <ele>91.7</ele>
        <time>2012-10-21T07:59:42Z</time>
      </trkpt>
      <trkpt lat="49.96263" lon="2.32042">
        <ele>91.3</ele>
        <time>2012-10-21T07:59:52Z</time>
      </trkpt>
      <trkpt lat="49.96251" lon="2.32029">
        <ele>90.7</ele>
        <time>2012-10-21T08:00:01Z</time>
      </trkpt>
      <trkpt lat="49.96239" lon="2.32016">
        <ele>90</ele>
        <time>2012-10-21T08:00:12Z</time>
      </trkpt>
      <trkpt lat="49.96229" lon="2.32001">
        <ele>89.4</ele>
        <time>2012-10-21T08:00:22Z</time>
      </trkpt>
      <trkpt lat="49.96218" lon="2.31987">
        <ele>88.8</ele>
        <time>2012-10-21T08:00:32Z</time>
      </trkpt>
      <trkpt lat="49.96207" lon="2.31974">
        <ele>88.1</ele>
        <time>2012-10-21T08:00:42Z</time>
      </trkpt>
      <trkpt lat="49.96197" lon="2.31958">
        <ele>87.5</ele>
        <time>2012-10-21T08:00:52Z</time>
      </trkpt>
      <trkpt lat="49.96185" lon="2.31943">
        <ele>86.7</ele>
        <time>2012-10-21T08:01:04Z</time>
      </trkpt>
      <trkpt lat="49.96175" lon="2.31926">
        <ele>86.8</ele>
        <time>2012-10-21T08:01:15Z</time>
      </trkpt>
      <trkpt lat="49.96166" lon="2.31911">
        <ele>85.2</ele>
        <time>2012-10-21T08:01:25Z</time>
      </trkpt>
      <trkpt lat="49.96154" lon="2.319">
        <ele>87.3</ele>
        <time>2012-10-21T08:01:34Z</time>
      </trkpt>
      <trkpt lat="49.96141" lon="2.31886">
        <ele>89.8</ele>
        <time>2012-10-21T08:01:45Z</time>
      </trkpt>
      <trkpt lat="49.9613" lon="2.31872">
        <ele>95.4</ele>
        <time>2012-10-21T08:01:54Z</time>
      </trkpt>
      <trkpt lat="49.96118" lon="2.31858">
        <ele>98.7</ele>
        <time>2012-10-21T08:02:04Z</time>
      </trkpt>
      <trkpt lat="49.96108" lon="2.31845">
        <ele>101.7</ele>
        <time>2012-10-21T08:02:13Z</time>
      </trkpt>
      <trkpt lat="49.96096" lon="2.3183">
        <ele>100</ele>
        <time>2012-10-21T08:02:26Z</time>
      </trkpt>
      <trkpt lat="49.96087" lon="2.31812">
        <ele>88.4</ele>
        <time>2012-10-21T08:02:39Z</time>
      </trkpt>
      <trkpt lat="49.96076" lon="2.31796">
        <ele>89.8</ele>
        <time>2012-10-21T08:02:52Z</time>
      </trkpt>
      <trkpt lat="49.96067" lon="2.31782">
        <ele>90.9</ele>
        <time>2012-10-21T08:03:02Z</time>
      </trkpt>
      <trkpt lat="49.96057" lon="2.31765">
        <ele>89.4</ele>
        <time>2012-10-21T08:03:09Z</time>
      </trkpt>
      <trkpt lat="49.96045" lon="2.31752">
        <ele>90.4</ele>
        <time>2012-10-21T08:03:18Z</time>
      </trkpt>
      <trkpt lat="49.96036" lon="2.31736">
        <ele>91.4</ele>
        <time>2012-10-21T08:03:29Z</time>
      </trkpt>
      <trkpt lat="49.96028" lon="2.31717">
        <ele>86.4</ele>
        <time>2012-10-21T08:03:40Z</time>
      </trkpt>
      <trkpt lat="49.96015" lon="2.31704">
        <ele>88.6</ele>
        <time>2012-10-21T08:03:49Z</time>
      </trkpt>
      <trkpt lat="49.96002" lon="2.31695">
        <ele>90.5</ele>
        <time>2012-10-21T08:03:57Z</time>
      </trkpt>
      <trkpt lat="49.95994" lon="2.31677">
        <ele>88.2</ele>
        <time>2012-10-21T08:04:07Z</time>
      </trkpt>
      <trkpt lat="49.95991" lon="2.3167">
        <ele>89.4</ele>
        <time>2012-10-21T08:04:11Z</time>
      </trkpt>
      <trkpt lat="49.95978" lon="2.31661">
        <ele>92.7</ele>
        <time>2012-10-21T08:04:22Z</time>
      </trkpt>
      <trkpt lat="49.95966" lon="2.31649">
        <ele>95.9</ele>
        <time>2012-10-21T08:04:32Z</time>
      </trkpt>
      <trkpt lat="49.95955" lon="2.31636">
        <ele>93.2</ele>
        <time>2012-10-21T08:04:42Z</time>
      </trkpt>
      <trkpt lat="49.95944" lon="2.31622">
        <ele>92.6</ele>
        <time>2012-10-21T08:04:53Z</time>
      </trkpt>
      <trkpt lat="49.95933" lon="2.31607">
        <ele>89.4</ele>
        <time>2012-10-21T08:05:06Z</time>
      </trkpt>
      <trkpt lat="49.95924" lon="2.31588">
        <ele>84.7</ele>
        <time>2012-10-21T08:05:18Z</time>
      </trkpt>
      <trkpt lat="49.95911" lon="2.31578">
        <ele>85.9</ele>
        <time>2012-10-21T08:05:29Z</time>
      </trkpt>
      <trkpt lat="49.95898" lon="2.31567">
        <ele>87.7</ele>
        <time>2012-10-21T08:05:39Z</time>
      </trkpt>
      <trkpt lat="49.95889" lon="2.3155">
        <ele>89.1</ele>
        <time>2012-10-21T08:05:45Z</time>
      </trkpt>
      <trkpt lat="49.95879" lon="2.31536">
        <ele>90.9</ele>
        <time>2012-10-21T08:05:52Z</time>
      </trkpt>
      <trkpt lat="49.95859" lon="2.31495">
        <ele>92.6</ele>
        <time>2012-10-21T08:05:59Z</time>
      </trkpt>
      <trkpt lat="49.95835" lon="2.3149">
        <ele>87.7</ele>
        <time>2012-10-21T08:06:22Z</time>
      </trkpt>
      <trkpt lat="49.9583" lon="2.31499">
        <ele>90.5</ele>
        <time>2012-10-21T08:06:31Z</time>
      </trkpt>
      <trkpt lat="49.95816" lon="2.3149">
        <ele>85.1</ele>
        <time>2012-10-21T08:06:45Z</time>
      </trkpt>
      <trkpt lat="49.95803" lon="2.31485">
        <ele>83.1</ele>
        <time>2012-10-21T08:06:55Z</time>
      </trkpt>
      <trkpt lat="49.9579" lon="2.31479">
        <ele>83.3</ele>
        <time>2012-10-21T08:07:05Z</time>
      </trkpt>
      <trkpt lat="49.95775" lon="2.31475">
        <ele>88.1</ele>
        <time>2012-10-21T08:07:14Z</time>
      </trkpt>
      <trkpt lat="49.9576" lon="2.31468">
        <ele>87.7</ele>
        <time>2012-10-21T08:07:25Z</time>
      </trkpt>
      <trkpt lat="49.95761" lon="2.31446">
        <ele>84.1</ele>
        <time>2012-10-21T08:07:38Z</time>
      </trkpt>
      <trkpt lat="49.95765" lon="2.31426">
        <ele>85.3</ele>
        <time>2012-10-21T08:07:46Z</time>
      </trkpt>
      <trkpt lat="49.9577" lon="2.31385">
        <ele>84.1</ele>
        <time>2012-10-21T08:07:59Z</time>
      </trkpt>
      <trkpt lat="49.9577" lon="2.31385">
        <ele>84.1</ele>
        <time>2012-10-21T08:11:59Z</time>
      </trkpt>
      <trkpt lat="49.95773" lon="2.31366">
        <ele>79.6</ele>
        <time>2012-10-21T08:12:13Z</time>
      </trkpt>
      <trkpt lat="49.95774" lon="2.31343">
        <ele>84.1</ele>
        <time>2012-10-21T08:12:28Z</time>
      </trkpt>
      <trkpt lat="49.95774" lon="2.31319">
        <ele>88</ele>
        <time>2012-10-21T08:12:37Z</time>
      </trkpt>
      <trkpt lat="49.95775" lon="2.31297">
        <ele>92.9</ele>
        <time>2012-10-21T08:12:49Z</time>
      </trkpt>
      <trkpt lat="49.95777" lon="2.31274">
        <ele>88.1</ele>
        <time>2012-10-21T08:13:00Z</time>
      </trkpt>
      <trkpt lat="49.95782" lon="2.31254">
        <ele>90</ele>
        <time>2012-10-21T08:13:13Z</time>
      </trkpt>
      <trkpt lat="49.95786" lon="2.31233">
        <ele>91.2</ele>
        <time>2012-10-21T08:13:21Z</time>
      </trkpt>
      <trkpt lat="49.95785" lon="2.3121">
        <ele>77.4</ele>
        <time>2012-10-21T08:13:32Z</time>
      </trkpt>
      <trkpt lat="49.95788" lon="2.31188">
        <ele>75.5</ele>
        <time>2012-10-21T08:13:43Z</time>
      </trkpt>
      <trkpt lat="49.95793" lon="2.31168">
        <ele>79.9</ele>
        <time>2012-10-21T08:13:59Z</time>
      </trkpt>
      <trkpt lat="49.95794" lon="2.31146">
        <ele>81.8</ele>
        <time>2012-10-21T08:14:09Z</time>
      </trkpt>
      <trkpt lat="49.95795" lon="2.3112">
        <ele>82.8</ele>
        <time>2012-10-21T08:14:20Z</time>
      </trkpt>
      <trkpt lat="49.958" lon="2.31099">
        <ele>83.9</ele>
        <time>2012-10-21T08:14:32Z</time>
      </trkpt>
      <trkpt lat="49.95802" lon="2.31078">
        <ele>84.6</ele>
        <time>2012-10-21T08:14:40Z</time>
      </trkpt>
      <trkpt lat="49.95796" lon="2.31057">
        <ele>86.2</ele>
        <time>2012-10-21T08:14:47Z</time>
      </trkpt>
      <trkpt lat="49.95794" lon="2.31035">
        <ele>88.8</ele>
        <time>2012-10-21T08:14:56Z</time>
      </trkpt>
      <trkpt lat="49.95792" lon="2.31012">
        <ele>90.4</ele>
        <time>2012-10-21T08:15:06Z</time>
      </trkpt>
      <trkpt lat="49.95794" lon="2.30991">
        <ele>87.4</ele>
        <time>2012-10-21T08:15:16Z</time>
      </trkpt>
      <trkpt lat="49.95797" lon="2.30969">
        <ele>88.7</ele>
        <time>2012-10-21T08:15:26Z</time>
      </trkpt>
      <trkpt lat="49.95797" lon="2.30945">
        <ele>92.6</ele>
        <time>2012-10-21T08:15:36Z</time>
      </trkpt>
      <trkpt lat="49.95798" lon="2.30916">
        <ele>84.9</ele>
        <time>2012-10-21T08:15:47Z</time>
      </trkpt>
      <trkpt lat="49.95801" lon="2.30894">
        <ele>82</ele>
        <time>2012-10-21T08:16:01Z</time>
      </trkpt>
      <trkpt lat="49.95802" lon="2.30872">
        <ele>85.5</ele>
        <time>2012-10-21T08:16:11Z</time>
      </trkpt>
      <trkpt lat="49.95805" lon="2.30849">
        <ele>82.4</ele>
        <time>2012-10-21T08:16:22Z</time>
      </trkpt>
      <trkpt lat="49.95807" lon="2.30828">
        <ele>81.1</ele>
        <time>2012-10-21T08:16:31Z</time>
      </trkpt>
      <trkpt lat="49.95807" lon="2.30807">
        <ele>84.3</ele>
        <time>2012-10-21T08:16:40Z</time>
      </trkpt>
      <trkpt lat="49.95807" lon="2.30785">
        <ele>80</ele>
        <time>2012-10-21T08:16:51Z</time>
      </trkpt>
      <trkpt lat="49.95809" lon="2.3076">
        <ele>82</ele>
        <time>2012-10-21T08:17:00Z</time>
      </trkpt>
      <trkpt lat="49.95811" lon="2.30736">
        <ele>87.9</ele>
        <time>2012-10-21T08:17:13Z</time>
      </trkpt>
      <trkpt lat="49.95812" lon="2.30713">
        <ele>83.2</ele>
        <time>2012-10-21T08:17:23Z</time>
      </trkpt>
      <trkpt lat="49.95815" lon="2.30687">
        <ele>80.8</ele>
        <time>2012-10-21T08:17:32Z</time>
      </trkpt>
      <trkpt lat="49.95817" lon="2.30666">
        <ele>83.5</ele>
        <time>2012-10-21T08:17:44Z</time>
      </trkpt>
      <trkpt lat="49.9582" lon="2.30645">
        <ele>79.7</ele>
        <time>2012-10-21T08:17:54Z</time>
      </trkpt>
      <trkpt lat="49.95824" lon="2.30621">
        <ele>81.3</ele>
        <time>2012-10-21T08:18:04Z</time>
      </trkpt>
      <trkpt lat="49.95827" lon="2.306">
        <ele>77.4</ele>
        <time>2012-10-21T08:18:15Z</time>
      </trkpt>
      <trkpt lat="49.95829" lon="2.3058">
        <ele>76.1</ele>
        <time>2012-10-21T08:18:26Z</time>
      </trkpt>
      <trkpt lat="49.95835" lon="2.30559">
        <ele>73.1</ele>
        <time>2012-10-21T08:18:35Z</time>
      </trkpt>
      <trkpt lat="49.95839" lon="2.30539">
        <ele>75.8</ele>
        <time>2012-10-21T08:18:45Z</time>
      </trkpt>
      <trkpt lat="49.95844" lon="2.30517">
        <ele>81.5</ele>
        <time>2012-10-21T08:18:56Z</time>
      </trkpt>
      <trkpt lat="49.95848" lon="2.30497">
        <ele>76.9</ele>
        <time>2012-10-21T08:19:07Z</time>
      </trkpt>
      <trkpt lat="49.95852" lon="2.30477">
        <ele>79.6</ele>
        <time>2012-10-21T08:19:19Z</time>
      </trkpt>
      <trkpt lat="49.95852" lon="2.30452">
        <ele>83.1</ele>
        <time>2012-10-21T08:19:31Z</time>
      </trkpt>
      <trkpt lat="49.95855" lon="2.30429">
        <ele>81.6</ele>
        <time>2012-10-21T08:19:41Z</time>
      </trkpt>
      <trkpt lat="49.95861" lon="2.30409">
        <ele>82</ele>
        <time>2012-10-21T08:19:52Z</time>
      </trkpt>
      <trkpt lat="49.95866" lon="2.30388">
        <ele>80.2</ele>
        <time>2012-10-21T08:20:02Z</time>
      </trkpt>
      <trkpt lat="49.95869" lon="2.30368">
        <ele>80.1</ele>
        <time>2012-10-21T08:20:10Z</time>
      </trkpt>
      <trkpt lat="49.95872" lon="2.30346">
        <ele>82.4</ele>
        <time>2012-10-21T08:20:17Z</time>
      </trkpt>
      <trkpt lat="49.95875" lon="2.30326">
        <ele>82.2</ele>
        <time>2012-10-21T08:20:26Z</time>
      </trkpt>
      <trkpt lat="49.95879" lon="2.30304">
        <ele>78.3</ele>
        <time>2012-10-21T08:20:35Z</time>
      </trkpt>
      <trkpt lat="49.95881" lon="2.30284">
        <ele>82.1</ele>
        <time>2012-10-21T08:20:44Z</time>
      </trkpt>
      <trkpt lat="49.95885" lon="2.30262">
        <ele>77.6</ele>
        <time>2012-10-21T08:20:53Z</time>
      </trkpt>
      <trkpt lat="49.95889" lon="2.3024">
        <ele>82.7</ele>
        <time>2012-10-21T08:21:02Z</time>
      </trkpt>
      <trkpt lat="49.95892" lon="2.30219">
        <ele>77.6</ele>
        <time>2012-10-21T08:21:13Z</time>
      </trkpt>
      <trkpt lat="49.95895" lon="2.30198">
        <ele>79.3</ele>
        <time>2012-10-21T08:21:22Z</time>
      </trkpt>
      <trkpt lat="49.95899" lon="2.30177">
        <ele>80.6</ele>
        <time>2012-10-21T08:21:32Z</time>
      </trkpt>
      <trkpt lat="49.95905" lon="2.30157">
        <ele>78.3</ele>
        <time>2012-10-21T08:21:44Z</time>
      </trkpt>
      <trkpt lat="49.95906" lon="2.30132">
        <ele>78.9</ele>
        <time>2012-10-21T08:21:53Z</time>
      </trkpt>
      <trkpt lat="49.95909" lon="2.3011">
        <ele>79.8</ele>
        <time>2012-10-21T08:22:04Z</time>
      </trkpt>
      <trkpt lat="49.95914" lon="2.3009">
        <ele>79.4</ele>
        <time>2012-10-21T08:22:15Z</time>
      </trkpt>
      <trkpt lat="49.95916" lon="2.30067">
        <ele>78.1</ele>
        <time>2012-10-21T08:22:23Z</time>
      </trkpt>
      <trkpt lat="49.95921" lon="2.30046">
        <ele>80.5</ele>
        <time>2012-10-21T08:22:33Z</time>
      </trkpt>
      <trkpt lat="49.95926" lon="2.30025">
        <ele>82.9</ele>
        <time>2012-10-21T08:22:40Z</time>
      </trkpt>
      <trkpt lat="49.9593" lon="2.30003">
        <ele>77.5</ele>
        <time>2012-10-21T08:22:48Z</time>
      </trkpt>
      <trkpt lat="49.95934" lon="2.29983">
        <ele>76.3</ele>
        <time>2012-10-21T08:23:00Z</time>
      </trkpt>
      <trkpt lat="49.95941" lon="2.29964">
        <ele>76.9</ele>
        <time>2012-10-21T08:23:10Z</time>
      </trkpt>
      <trkpt lat="49.95946" lon="2.29936">
        <ele>78.5</ele>
        <time>2012-10-21T08:23:21Z</time>
      </trkpt>
      <trkpt lat="49.95947" lon="2.29914">
        <ele>76.8</ele>
        <time>2012-10-21T08:23:34Z</time>
      </trkpt>
      <trkpt lat="49.95949" lon="2.29892">
        <ele>80.9</ele>
        <time>2012-10-21T08:23:43Z</time>
      </trkpt>
      <trkpt lat="49.95952" lon="2.29872">
        <ele>74.7</ele>
        <time>2012-10-21T08:23:52Z</time>
      </trkpt>
      <trkpt lat="49.95963" lon="2.29859">
        <ele>72.7</ele>
        <time>2012-10-21T08:24:02Z</time>
      </trkpt>
      <trkpt lat="49.95977" lon="2.29854">
        <ele>74.7</ele>
        <time>2012-10-21T08:24:12Z</time>
      </trkpt>
      <trkpt lat="49.95992" lon="2.29851">
        <ele>73.5</ele>
        <time>2012-10-21T08:24:23Z</time>
      </trkpt>
      <trkpt lat="49.96005" lon="2.29844">
        <ele>64.7</ele>
        <time>2012-10-21T08:24:39Z</time>
      </trkpt>
      <trkpt lat="49.96019" lon="2.29843">
        <ele>64.2</ele>
        <time>2012-10-21T08:24:48Z</time>
      </trkpt>
      <trkpt lat="49.96033" lon="2.29841">
        <ele>66.4</ele>
        <time>2012-10-21T08:24:58Z</time>
      </trkpt>
      <trkpt lat="49.96046" lon="2.29836">
        <ele>69.3</ele>
        <time>2012-10-21T08:25:06Z</time>
      </trkpt>
      <trkpt lat="49.9606" lon="2.29834">
        <ele>68.3</ele>
        <time>2012-10-21T08:25:18Z</time>
      </trkpt>
      <trkpt lat="49.96074" lon="2.29831">
        <ele>69.8</ele>
        <time>2012-10-21T08:25:27Z</time>
      </trkpt>
      <trkpt lat="49.96088" lon="2.29827">
        <ele>69.2</ele>
        <time>2012-10-21T08:25:36Z</time>
      </trkpt>
      <trkpt lat="49.96102" lon="2.29825">
        <ele>67.9</ele>
        <time>2012-10-21T08:25:45Z</time>
      </trkpt>
      <trkpt lat="49.96116" lon="2.29824">
        <ele>64.6</ele>
        <time>2012-10-21T08:25:54Z</time>
      </trkpt>
      <trkpt lat="49.96129" lon="2.29823">
        <ele>68.4</ele>
        <time>2012-10-21T08:26:04Z</time>
      </trkpt>
      <trkpt lat="49.96145" lon="2.29821">
        <ele>72.3</ele>
        <time>2012-10-21T08:26:11Z</time>
      </trkpt>
      <trkpt lat="49.9616" lon="2.29816">
        <ele>77.1</ele>
        <time>2012-10-21T08:26:19Z</time>
      </trkpt>
      <trkpt lat="49.96176" lon="2.29817">
        <ele>82</ele>
        <time>2012-10-21T08:26:29Z</time>
      </trkpt>
      <trkpt lat="49.9619" lon="2.29819">
        <ele>82.5</ele>
        <time>2012-10-21T08:26:41Z</time>
      </trkpt>
      <trkpt lat="49.96204" lon="2.29822">
        <ele>78.7</ele>
        <time>2012-10-21T08:26:51Z</time>
      </trkpt>
      <trkpt lat="49.96218" lon="2.29825">
        <ele>82.9</ele>
        <time>2012-10-21T08:27:00Z</time>
      </trkpt>
      <trkpt lat="49.96232" lon="2.29828">
        <ele>86.6</ele>
        <time>2012-10-21T08:27:09Z</time>
      </trkpt>
      <trkpt lat="49.96245" lon="2.29829">
        <ele>86.6</ele>
        <time>2012-10-21T08:27:19Z</time>
      </trkpt>
      <trkpt lat="49.96259" lon="2.29833">
        <ele>86.2</ele>
        <time>2012-10-21T08:27:29Z</time>
      </trkpt>
      <trkpt lat="49.96274" lon="2.29837">
        <ele>87</ele>
        <time>2012-10-21T08:27:38Z</time>
      </trkpt>
      <trkpt lat="49.96288" lon="2.2984">
        <ele>79.6</ele>
        <time>2012-10-21T08:27:51Z</time>
      </trkpt>
      <trkpt lat="49.96303" lon="2.29843">
        <ele>79.5</ele>
        <time>2012-10-21T08:28:02Z</time>
      </trkpt>
      <trkpt lat="49.96316" lon="2.29846">
        <ele>81.5</ele>
        <time>2012-10-21T08:28:12Z</time>
      </trkpt>
      <trkpt lat="49.9633" lon="2.29851">
        <ele>75.2</ele>
        <time>2012-10-21T08:28:22Z</time>
      </trkpt>
      <trkpt lat="49.96345" lon="2.29858">
        <ele>76.2</ele>
        <time>2012-10-21T08:28:35Z</time>
      </trkpt>
      <trkpt lat="49.96359" lon="2.29861">
        <ele>69.3</ele>
        <time>2012-10-21T08:28:44Z</time>
      </trkpt>
      <trkpt lat="49.96372" lon="2.29864">
        <ele>71.1</ele>
        <time>2012-10-21T08:28:54Z</time>
      </trkpt>
      <trkpt lat="49.96386" lon="2.29867">
        <ele>69</ele>
        <time>2012-10-21T08:29:04Z</time>
      </trkpt>
      <trkpt lat="49.96401" lon="2.29872">
        <ele>66.4</ele>
        <time>2012-10-21T08:29:16Z</time>
      </trkpt>
      <trkpt lat="49.96415" lon="2.29874">
        <ele>69.6</ele>
        <time>2012-10-21T08:29:25Z</time>
      </trkpt>
      <trkpt lat="49.96429" lon="2.29876">
        <ele>73.2</ele>
        <time>2012-10-21T08:29:34Z</time>
      </trkpt>
      <trkpt lat="49.96443" lon="2.29879">
        <ele>76.3</ele>
        <time>2012-10-21T08:29:44Z</time>
      </trkpt>
      <trkpt lat="49.96457" lon="2.29883">
        <ele>75.4</ele>
        <time>2012-10-21T08:29:54Z</time>
      </trkpt>
      <trkpt lat="49.96471" lon="2.29888">
        <ele>71.9</ele>
        <time>2012-10-21T08:30:04Z</time>
      </trkpt>
      <trkpt lat="49.96486" lon="2.29891">
        <ele>69.7</ele>
        <time>2012-10-21T08:30:15Z</time>
      </trkpt>
      <trkpt lat="49.96499" lon="2.29892">
        <ele>72</ele>
        <time>2012-10-21T08:30:24Z</time>
      </trkpt>
      <trkpt lat="49.96514" lon="2.29894">
        <ele>64.6</ele>
        <time>2012-10-21T08:30:35Z</time>
      </trkpt>
      <trkpt lat="49.96529" lon="2.29897">
        <ele>66.9</ele>
        <time>2012-10-21T08:30:45Z</time>
      </trkpt>
      <trkpt lat="49.96548" lon="2.29898">
        <ele>71.7</ele>
        <time>2012-10-21T08:30:55Z</time>
      </trkpt>
      <trkpt lat="49.96594" lon="2.29873">
        <ele>73.4</ele>
        <time>2012-10-21T08:31:13Z</time>
      </trkpt>
      <trkpt lat="49.9661" lon="2.29901">
        <ele>68.4</ele>
        <time>2012-10-21T08:31:48Z</time>
      </trkpt>
      <trkpt lat="49.96647" lon="2.29917">
        <ele>75.7</ele>
        <time>2012-10-21T08:32:04Z</time>
      </trkpt>
      <trkpt lat="49.9666" lon="2.29927">
        <ele>79.5</ele>
        <time>2012-10-21T08:32:14Z</time>
      </trkpt>
      <trkpt lat="49.96674" lon="2.29929">
        <ele>75.1</ele>
        <time>2012-10-21T08:32:22Z</time>
      </trkpt>
      <trkpt lat="49.96685" lon="2.29933">
        <ele>73.3</ele>
        <time>2012-10-21T08:32:33Z</time>
      </trkpt>
      <trkpt lat="49.96694" lon="2.29944">
        <ele>72</ele>
        <time>2012-10-21T08:32:48Z</time>
      </trkpt>
      <trkpt lat="49.967" lon="2.29943">
        <ele>71.3</ele>
        <time>2012-10-21T08:32:53Z</time>
      </trkpt>
      <trkpt lat="49.96716" lon="2.29946">
        <ele>69.4</ele>
        <time>2012-10-21T08:33:07Z</time>
      </trkpt>
      <trkpt lat="49.9674" lon="2.29951">
        <ele>68.9</ele>
        <time>2012-10-21T08:33:14Z</time>
      </trkpt>
      <trkpt lat="49.96755" lon="2.29956">
        <ele>65.1</ele>
        <time>2012-10-21T08:33:38Z</time>
      </trkpt>
      <trkpt lat="49.96768" lon="2.29963">
        <ele>59.4</ele>
        <time>2012-10-21T08:33:50Z</time>
      </trkpt>
      <trkpt lat="49.96781" lon="2.29968">
        <ele>57.4</ele>
        <time>2012-10-21T08:33:59Z</time>
      </trkpt>
      <trkpt lat="49.96796" lon="2.29967">
        <ele>54.7</ele>
        <time>2012-10-21T08:34:11Z</time>
      </trkpt>
      <trkpt lat="49.96809" lon="2.29972">
        <ele>47.1</ele>
        <time>2012-10-21T08:34:24Z</time>
      </trkpt>
      <trkpt lat="49.96822" lon="2.29978">
        <ele>43.1</ele>
        <time>2012-10-21T08:34:34Z</time>
      </trkpt>
      <trkpt lat="49.96837" lon="2.2998">
        <ele>50.3</ele>
        <time>2012-10-21T08:34:44Z</time>
      </trkpt>
      <trkpt lat="49.96851" lon="2.29985">
        <ele>53.8</ele>
        <time>2012-10-21T08:34:54Z</time>
      </trkpt>
      <trkpt lat="49.96865" lon="2.29979">
        <ele>57.3</ele>
        <time>2012-10-21T08:35:04Z</time>
      </trkpt>
      <trkpt lat="49.96878" lon="2.29978">
        <ele>60.1</ele>
        <time>2012-10-21T08:35:12Z</time>
      </trkpt>
      <trkpt lat="49.96893" lon="2.29974">
        <ele>63.2</ele>
        <time>2012-10-21T08:35:21Z</time>
      </trkpt>
      <trkpt lat="49.96907" lon="2.29969">
        <ele>69.2</ele>
        <time>2012-10-21T08:35:32Z</time>
      </trkpt>
      <trkpt lat="49.96916" lon="2.29947">
        <ele>56.7</ele>
        <time>2012-10-21T08:35:43Z</time>
      </trkpt>
      <trkpt lat="49.96924" lon="2.29927">
        <ele>60.5</ele>
        <time>2012-10-21T08:35:55Z</time>
      </trkpt>
      <trkpt lat="49.96935" lon="2.2991">
        <ele>62.3</ele>
        <time>2012-10-21T08:36:02Z</time>
      </trkpt>
      <trkpt lat="49.96959" lon="2.29883">
        <ele>74.4</ele>
        <time>2012-10-21T08:36:21Z</time>
      </trkpt>
      <trkpt lat="49.96959" lon="2.29883">
        <ele>74.4</ele>
        <time>2012-10-21T08:42:02Z</time>
      </trkpt>
      <trkpt lat="49.96977" lon="2.29869">
        <ele>83.2</ele>
        <time>2012-10-21T08:42:14Z</time>
      </trkpt>
      <trkpt lat="49.96977" lon="2.29869">
        <ele>83.2</ele>
        <time>2012-10-21T08:52:34Z</time>
      </trkpt>
      <trkpt lat="49.96981" lon="2.29869">
        <ele>83.7</ele>
        <time>2012-10-21T08:52:34Z</time>
      </trkpt>
      <trkpt lat="49.96991" lon="2.29856">
        <ele>84.1</ele>
        <time>2012-10-21T08:52:45Z</time>
      </trkpt>
      <trkpt lat="49.97002" lon="2.29839">
        <ele>88.2</ele>
        <time>2012-10-21T08:52:54Z</time>
      </trkpt>
      <trkpt lat="49.97009" lon="2.29819">
        <ele>90</ele>
        <time>2012-10-21T08:53:02Z</time>
      </trkpt>
      <trkpt lat="49.97014" lon="2.29799">
        <ele>91.6</ele>
        <time>2012-10-21T08:53:10Z</time>
      </trkpt>
      <trkpt lat="49.97022" lon="2.29781">
        <ele>92.5</ele>
        <time>2012-10-21T08:53:20Z</time>
      </trkpt>
      <trkpt lat="49.97029" lon="2.29763">
        <ele>89.2</ele>
        <time>2012-10-21T08:53:31Z</time>
      </trkpt>
      <trkpt lat="49.97034" lon="2.2974">
        <ele>85.6</ele>
        <time>2012-10-21T08:53:44Z</time>
      </trkpt>
      <trkpt lat="49.97042" lon="2.2972">
        <ele>84.2</ele>
        <time>2012-10-21T08:53:53Z</time>
      </trkpt>
      <trkpt lat="49.97046" lon="2.297">
        <ele>86.4</ele>
        <time>2012-10-21T08:54:03Z</time>
      </trkpt>
      <trkpt lat="49.9705" lon="2.29679">
        <ele>88.5</ele>
        <time>2012-10-21T08:54:12Z</time>
      </trkpt>
      <trkpt lat="49.97057" lon="2.29661">
        <ele>86</ele>
        <time>2012-10-21T08:54:20Z</time>
      </trkpt>
      <trkpt lat="49.97064" lon="2.29644">
        <ele>86.2</ele>
        <time>2012-10-21T08:54:33Z</time>
      </trkpt>
      <trkpt lat="49.9707" lon="2.29622">
        <ele>82.7</ele>
        <time>2012-10-21T08:54:44Z</time>
      </trkpt>
      <trkpt lat="49.97072" lon="2.29612">
        <ele>85</ele>
        <time>2012-10-21T08:54:50Z</time>
      </trkpt>
      <trkpt lat="49.97083" lon="2.296">
        <ele>83.3</ele>
        <time>2012-10-21T08:54:58Z</time>
      </trkpt>
      <trkpt lat="49.97095" lon="2.29585">
        <ele>87</ele>
        <time>2012-10-21T08:55:12Z</time>
      </trkpt>
      <trkpt lat="49.97105" lon="2.29571">
        <ele>82.7</ele>
        <time>2012-10-21T08:55:22Z</time>
      </trkpt>
      <trkpt lat="49.97114" lon="2.29565">
        <ele>77.5</ele>
        <time>2012-10-21T08:55:29Z</time>
      </trkpt>
      <trkpt lat="49.97123" lon="2.29545">
        <ele>79.5</ele>
        <time>2012-10-21T08:55:37Z</time>
      </trkpt>
      <trkpt lat="49.97136" lon="2.29537">
        <ele>82.6</ele>
        <time>2012-10-21T08:55:47Z</time>
      </trkpt>
      <trkpt lat="49.97148" lon="2.29524">
        <ele>86.2</ele>
        <time>2012-10-21T08:55:57Z</time>
      </trkpt>
      <trkpt lat="49.97158" lon="2.2951">
        <ele>82.7</ele>
        <time>2012-10-21T08:56:06Z</time>
      </trkpt>
      <trkpt lat="49.9717" lon="2.29499">
        <ele>82.6</ele>
        <time>2012-10-21T08:56:17Z</time>
      </trkpt>
      <trkpt lat="49.97181" lon="2.29486">
        <ele>82.3</ele>
        <time>2012-10-21T08:56:26Z</time>
      </trkpt>
      <trkpt lat="49.97196" lon="2.29478">
        <ele>80.4</ele>
        <time>2012-10-21T08:56:38Z</time>
      </trkpt>
      <trkpt lat="49.97208" lon="2.29469">
        <ele>83.6</ele>
        <time>2012-10-21T08:56:47Z</time>
      </trkpt>
      <trkpt lat="49.9722" lon="2.29457">
        <ele>79.3</ele>
        <time>2012-10-21T08:56:58Z</time>
      </trkpt>
      <trkpt lat="49.97232" lon="2.29443">
        <ele>80.9</ele>
        <time>2012-10-21T08:57:09Z</time>
      </trkpt>
      <trkpt lat="49.97243" lon="2.29431">
        <ele>79.8</ele>
        <time>2012-10-21T08:57:22Z</time>
      </trkpt>
      <trkpt lat="49.97254" lon="2.29417">
        <ele>77.5</ele>
        <time>2012-10-21T08:57:31Z</time>
      </trkpt>
      <trkpt lat="49.97266" lon="2.29405">
        <ele>78.3</ele>
        <time>2012-10-21T08:57:42Z</time>
      </trkpt>
      <trkpt lat="49.97277" lon="2.29392">
        <ele>76.7</ele>
        <time>2012-10-21T08:57:52Z</time>
      </trkpt>
      <trkpt lat="49.9729" lon="2.29382">
        <ele>83.4</ele>
        <time>2012-10-21T08:58:03Z</time>
      </trkpt>
      <trkpt lat="49.97304" lon="2.29376">
        <ele>80.4</ele>
        <time>2012-10-21T08:58:15Z</time>
      </trkpt>
      <trkpt lat="49.97317" lon="2.2937">
        <ele>77</ele>
        <time>2012-10-21T08:58:26Z</time>
      </trkpt>
      <trkpt lat="49.9733" lon="2.29361">
        <ele>75.9</ele>
        <time>2012-10-21T08:58:37Z</time>
      </trkpt>
      <trkpt lat="49.97342" lon="2.29348">
        <ele>79.1</ele>
        <time>2012-10-21T08:58:47Z</time>
      </trkpt>
      <trkpt lat="49.97351" lon="2.29332">
        <ele>79.9</ele>
        <time>2012-10-21T08:58:54Z</time>
      </trkpt>
      <trkpt lat="49.97359" lon="2.29314">
        <ele>80.2</ele>
        <time>2012-10-21T08:59:01Z</time>
      </trkpt>
      <trkpt lat="49.97369" lon="2.29299">
        <ele>84.6</ele>
        <time>2012-10-21T08:59:08Z</time>
      </trkpt>
      <trkpt lat="49.9738" lon="2.29283">
        <ele>87.8</ele>
        <time>2012-10-21T08:59:18Z</time>
      </trkpt>
      <trkpt lat="49.9739" lon="2.29269">
        <ele>85.9</ele>
        <time>2012-10-21T08:59:29Z</time>
      </trkpt>
      <trkpt lat="49.974" lon="2.29254">
        <ele>83.5</ele>
        <time>2012-10-21T08:59:43Z</time>
      </trkpt>
      <trkpt lat="49.97407" lon="2.29237">
        <ele>82.4</ele>
        <time>2012-10-21T08:59:51Z</time>
      </trkpt>
      <trkpt lat="49.97417" lon="2.29221">
        <ele>81.3</ele>
        <time>2012-10-21T09:00:02Z</time>
      </trkpt>
      <trkpt lat="49.97427" lon="2.29204">
        <ele>80.1</ele>
        <time>2012-10-21T09:00:13Z</time>
      </trkpt>
      <trkpt lat="49.9744" lon="2.29192">
        <ele>82.8</ele>
        <time>2012-10-21T09:00:25Z</time>
      </trkpt>
      <trkpt lat="49.97451" lon="2.29176">
        <ele>80.1</ele>
        <time>2012-10-21T09:00:35Z</time>
      </trkpt>
      <trkpt lat="49.97461" lon="2.29161">
        <ele>78</ele>
        <time>2012-10-21T09:00:46Z</time>
      </trkpt>
      <trkpt lat="49.97471" lon="2.29144">
        <ele>77</ele>
        <time>2012-10-21T09:00:55Z</time>
      </trkpt>
      <trkpt lat="49.9748" lon="2.29126">
        <ele>76.4</ele>
        <time>2012-10-21T09:01:06Z</time>
      </trkpt>
      <trkpt lat="49.9749" lon="2.2911">
        <ele>73.6</ele>
        <time>2012-10-21T09:01:18Z</time>
      </trkpt>
      <trkpt lat="49.975" lon="2.29095">
        <ele>76.5</ele>
        <time>2012-10-21T09:01:28Z</time>
      </trkpt>
      <trkpt lat="49.9751" lon="2.2908">
        <ele>77.7</ele>
        <time>2012-10-21T09:01:38Z</time>
      </trkpt>
      <trkpt lat="49.97519" lon="2.2906">
        <ele>72.8</ele>
        <time>2012-10-21T09:01:49Z</time>
      </trkpt>
      <trkpt lat="49.97528" lon="2.29044">
        <ele>79.7</ele>
        <time>2012-10-21T09:01:59Z</time>
      </trkpt>
      <trkpt lat="49.97537" lon="2.29029">
        <ele>78.9</ele>
        <time>2012-10-21T09:02:08Z</time>
      </trkpt>
      <trkpt lat="49.97546" lon="2.29011">
        <ele>76.2</ele>
        <time>2012-10-21T09:02:17Z</time>
      </trkpt>
      <trkpt lat="49.97555" lon="2.28993">
        <ele>81.2</ele>
        <time>2012-10-21T09:02:26Z</time>
      </trkpt>
      <trkpt lat="49.97564" lon="2.28975">
        <ele>77.1</ele>
        <time>2012-10-21T09:02:38Z</time>
      </trkpt>
      <trkpt lat="49.97569" lon="2.28956">
        <ele>73.7</ele>
        <time>2012-10-21T09:02:50Z</time>
      </trkpt>
      <trkpt lat="49.97576" lon="2.28935">
        <ele>83.3</ele>
        <time>2012-10-21T09:03:00Z</time>
      </trkpt>
      <trkpt lat="49.97581" lon="2.28914">
        <ele>84.8</ele>
        <time>2012-10-21T09:03:11Z</time>
      </trkpt>
      <trkpt lat="49.97592" lon="2.289">
        <ele>79.2</ele>
        <time>2012-10-21T09:03:25Z</time>
      </trkpt>
      <trkpt lat="49.976" lon="2.28885">
        <ele>80.8</ele>
        <time>2012-10-21T09:03:34Z</time>
      </trkpt>
      <trkpt lat="49.97605" lon="2.28865">
        <ele>70.9</ele>
        <time>2012-10-21T09:03:50Z</time>
      </trkpt>
      <trkpt lat="49.97615" lon="2.28849">
        <ele>73.7</ele>
        <time>2012-10-21T09:04:01Z</time>
      </trkpt>
      <trkpt lat="49.97623" lon="2.28832">
        <ele>77.4</ele>
        <time>2012-10-21T09:04:09Z</time>
      </trkpt>
      <trkpt lat="49.97636" lon="2.28819">
        <ele>80</ele>
        <time>2012-10-21T09:04:23Z</time>
      </trkpt>
      <trkpt lat="49.97648" lon="2.28807">
        <ele>81.2</ele>
        <time>2012-10-21T09:04:30Z</time>
      </trkpt>
      <trkpt lat="49.97658" lon="2.28791">
        <ele>84.8</ele>
        <time>2012-10-21T09:04:38Z</time>
      </trkpt>
      <trkpt lat="49.97669" lon="2.28776">
        <ele>89</ele>
        <time>2012-10-21T09:04:49Z</time>
      </trkpt>
      <trkpt lat="49.97679" lon="2.2876">
        <ele>86.3</ele>
        <time>2012-10-21T09:04:58Z</time>
      </trkpt>
      <trkpt lat="49.97692" lon="2.2875">
        <ele>87</ele>
        <time>2012-10-21T09:05:10Z</time>
      </trkpt>
      <trkpt lat="49.97704" lon="2.28736">
        <ele>84.9</ele>
        <time>2012-10-21T09:05:22Z</time>
      </trkpt>
      <trkpt lat="49.97714" lon="2.28721">
        <ele>81.2</ele>
        <time>2012-10-21T09:05:32Z</time>
      </trkpt>
      <trkpt lat="49.97727" lon="2.2871">
        <ele>83.9</ele>
        <time>2012-10-21T09:05:43Z</time>
      </trkpt>
      <trkpt lat="49.97737" lon="2.28694">
        <ele>84.7</ele>
        <time>2012-10-21T09:05:52Z</time>
      </trkpt>
      <trkpt lat="49.97748" lon="2.28679">
        <ele>87.6</ele>
        <time>2012-10-21T09:06:01Z</time>
      </trkpt>
      <trkpt lat="49.97756" lon="2.28668">
        <ele>88.8</ele>
        <time>2012-10-21T09:06:10Z</time>
      </trkpt>
      <trkpt lat="49.97762" lon="2.28648">
        <ele>87</ele>
        <time>2012-10-21T09:06:20Z</time>
      </trkpt>
      <trkpt lat="49.97773" lon="2.28633">
        <ele>88.3</ele>
        <time>2012-10-21T09:06:29Z</time>
      </trkpt>
      <trkpt lat="49.97783" lon="2.28618">
        <ele>88</ele>
        <time>2012-10-21T09:06:40Z</time>
      </trkpt>
      <trkpt lat="49.97792" lon="2.286">
        <ele>85.5</ele>
        <time>2012-10-21T09:06:51Z</time>
      </trkpt>
      <trkpt lat="49.97801" lon="2.28584">
        <ele>88</ele>
        <time>2012-10-21T09:07:01Z</time>
      </trkpt>
      <trkpt lat="49.97811" lon="2.28566">
        <ele>88.3</ele>
        <time>2012-10-21T09:07:13Z</time>
      </trkpt>
      <trkpt lat="49.97822" lon="2.2855">
        <ele>92.6</ele>
        <time>2012-10-21T09:07:24Z</time>
      </trkpt>
      <trkpt lat="49.97828" lon="2.2853">
        <ele>94.6</ele>
        <time>2012-10-21T09:07:34Z</time>
      </trkpt>
      <trkpt lat="49.97837" lon="2.28513">
        <ele>92.5</ele>
        <time>2012-10-21T09:07:45Z</time>
      </trkpt>
      <trkpt lat="49.97846" lon="2.28496">
        <ele>94.7</ele>
        <time>2012-10-21T09:07:55Z</time>
      </trkpt>
      <trkpt lat="49.97856" lon="2.28481">
        <ele>95.4</ele>
        <time>2012-10-21T09:08:04Z</time>
      </trkpt>
      <trkpt lat="49.97865" lon="2.28461">
        <ele>86.3</ele>
        <time>2012-10-21T09:08:16Z</time>
      </trkpt>
      <trkpt lat="49.97875" lon="2.28447">
        <ele>90.6</ele>
        <time>2012-10-21T09:08:26Z</time>
      </trkpt>
      <trkpt lat="49.97884" lon="2.28429">
        <ele>94.5</ele>
        <time>2012-10-21T09:08:35Z</time>
      </trkpt>
      <trkpt lat="49.97894" lon="2.28414">
        <ele>96.3</ele>
        <time>2012-10-21T09:08:45Z</time>
      </trkpt>
      <trkpt lat="49.97904" lon="2.28397">
        <ele>94.6</ele>
        <time>2012-10-21T09:08:56Z</time>
      </trkpt>
      <trkpt lat="49.97913" lon="2.28381">
        <ele>97.2</ele>
        <time>2012-10-21T09:09:07Z</time>
      </trkpt>
      <trkpt lat="49.97923" lon="2.28396">
        <ele>95.3</ele>
        <time>2012-10-21T09:09:20Z</time>
      </trkpt>
      <trkpt lat="49.97936" lon="2.28406">
        <ele>90.5</ele>
        <time>2012-10-21T09:09:31Z</time>
      </trkpt>
      <trkpt lat="49.9795" lon="2.28413">
        <ele>96.4</ele>
        <time>2012-10-21T09:09:43Z</time>
      </trkpt>
      <trkpt lat="49.97963" lon="2.28421">
        <ele>93.1</ele>
        <time>2012-10-21T09:09:55Z</time>
      </trkpt>
      <trkpt lat="49.97976" lon="2.28427">
        <ele>95.8</ele>
        <time>2012-10-21T09:10:06Z</time>
      </trkpt>
      <trkpt lat="49.9799" lon="2.28435">
        <ele>97.2</ele>
        <time>2012-10-21T09:10:15Z</time>
      </trkpt>
      <trkpt lat="49.98003" lon="2.28442">
        <ele>98.6</ele>
        <time>2012-10-21T09:10:26Z</time>
      </trkpt>
      <trkpt lat="49.98016" lon="2.28449">
        <ele>95.2</ele>
        <time>2012-10-21T09:10:36Z</time>
      </trkpt>
      <trkpt lat="49.9803" lon="2.28455">
        <ele>95.2</ele>
        <time>2012-10-21T09:10:46Z</time>
      </trkpt>
      <trkpt lat="49.98043" lon="2.28462">
        <ele>97.1</ele>
        <time>2012-10-21T09:10:56Z</time>
      </trkpt>
      <trkpt lat="49.98056" lon="2.28466">
        <ele>100.6</ele>
        <time>2012-10-21T09:11:06Z</time>
      </trkpt>
      <trkpt lat="49.98071" lon="2.28473">
        <ele>101.9</ele>
        <time>2012-10-21T09:11:15Z</time>
      </trkpt>
      <trkpt lat="49.98085" lon="2.28476">
        <ele>98.8</ele>
        <time>2012-10-21T09:11:26Z</time>
      </trkpt>
      <trkpt lat="49.981" lon="2.28481">
        <ele>101.8</ele>
        <time>2012-10-21T09:11:37Z</time>
      </trkpt>
      <trkpt lat="49.98113" lon="2.28488">
        <ele>103.9</ele>
        <time>2012-10-21T09:11:47Z</time>
      </trkpt>
      <trkpt lat="49.98127" lon="2.28496">
        <ele>100.3</ele>
        <time>2012-10-21T09:11:58Z</time>
      </trkpt>
      <trkpt lat="49.9814" lon="2.28505">
        <ele>99.6</ele>
        <time>2012-10-21T09:12:09Z</time>
      </trkpt>
      <trkpt lat="49.98152" lon="2.28517">
        <ele>100.3</ele>
        <time>2012-10-21T09:12:19Z</time>
      </trkpt>
      <trkpt lat="49.98165" lon="2.28527">
        <ele>102</ele>
        <time>2012-10-21T09:12:31Z</time>
      </trkpt>
      <trkpt lat="49.98177" lon="2.28538">
        <ele>106.3</ele>
        <time>2012-10-21T09:12:42Z</time>
      </trkpt>
      <trkpt lat="49.98189" lon="2.28549">
        <ele>104.4</ele>
        <time>2012-10-21T09:12:51Z</time>
      </trkpt>
      <trkpt lat="49.982" lon="2.28561">
        <ele>105.8</ele>
        <time>2012-10-21T09:13:02Z</time>
      </trkpt>
      <trkpt lat="49.98212" lon="2.28573">
        <ele>107.2</ele>
        <time>2012-10-21T09:13:13Z</time>
      </trkpt>
      <trkpt lat="49.98224" lon="2.28584">
        <ele>105.2</ele>
        <time>2012-10-21T09:13:22Z</time>
      </trkpt>
      <trkpt lat="49.98237" lon="2.28596">
        <ele>97.9</ele>
        <time>2012-10-21T09:13:35Z</time>
      </trkpt>
      <trkpt lat="49.98249" lon="2.28605">
        <ele>98.8</ele>
        <time>2012-10-21T09:13:45Z</time>
      </trkpt>
      <trkpt lat="49.98261" lon="2.28614">
        <ele>99.3</ele>
        <time>2012-10-21T09:13:55Z</time>
      </trkpt>
      <trkpt lat="49.98274" lon="2.28623">
        <ele>102.3</ele>
        <time>2012-10-21T09:14:06Z</time>
      </trkpt>
      <trkpt lat="49.98287" lon="2.28631">
        <ele>104</ele>
        <time>2012-10-21T09:14:13Z</time>
      </trkpt>
      <trkpt lat="49.983" lon="2.2864">
        <ele>105.7</ele>
        <time>2012-10-21T09:14:23Z</time>
      </trkpt>
      <trkpt lat="49.98312" lon="2.2865">
        <ele>105.9</ele>
        <time>2012-10-21T09:14:34Z</time>
      </trkpt>
      <trkpt lat="49.98325" lon="2.28662">
        <ele>103.3</ele>
        <time>2012-10-21T09:14:46Z</time>
      </trkpt>
      <trkpt lat="49.98336" lon="2.28676">
        <ele>98.2</ele>
        <time>2012-10-21T09:14:58Z</time>
      </trkpt>
      <trkpt lat="49.98346" lon="2.28691">
        <ele>99.8</ele>
        <time>2012-10-21T09:15:07Z</time>
      </trkpt>
      <trkpt lat="49.98357" lon="2.28704">
        <ele>100.7</ele>
        <time>2012-10-21T09:15:17Z</time>
      </trkpt>
      <trkpt lat="49.9837" lon="2.28722">
        <ele>98.5</ele>
        <time>2012-10-21T09:15:28Z</time>
      </trkpt>
      <trkpt lat="49.98381" lon="2.28734">
        <ele>100.9</ele>
        <time>2012-10-21T09:15:40Z</time>
      </trkpt>
      <trkpt lat="49.98393" lon="2.28747">
        <ele>101.7</ele>
        <time>2012-10-21T09:15:50Z</time>
      </trkpt>
      <trkpt lat="49.98405" lon="2.28758">
        <ele>102.4</ele>
        <time>2012-10-21T09:15:59Z</time>
      </trkpt>
      <trkpt lat="49.98418" lon="2.28767">
        <ele>103.2</ele>
        <time>2012-10-21T09:16:10Z</time>
      </trkpt>
      <trkpt lat="49.98432" lon="2.28775">
        <ele>99.8</ele>
        <time>2012-10-21T09:16:21Z</time>
      </trkpt>
      <trkpt lat="49.98445" lon="2.28781">
        <ele>105.6</ele>
        <time>2012-10-21T09:16:31Z</time>
      </trkpt>
      <trkpt lat="49.98458" lon="2.2879">
        <ele>106.1</ele>
        <time>2012-10-21T09:16:41Z</time>
      </trkpt>
      <trkpt lat="49.98471" lon="2.28798">
        <ele>101.9</ele>
        <time>2012-10-21T09:16:50Z</time>
      </trkpt>
      <trkpt lat="49.98483" lon="2.28808">
        <ele>103.3</ele>
        <time>2012-10-21T09:17:00Z</time>
      </trkpt>
      <trkpt lat="49.98497" lon="2.28815">
        <ele>107.3</ele>
        <time>2012-10-21T09:17:11Z</time>
      </trkpt>
      <trkpt lat="49.9851" lon="2.28823">
        <ele>109.7</ele>
        <time>2012-10-21T09:17:20Z</time>
      </trkpt>
      <trkpt lat="49.98523" lon="2.28831">
        <ele>104.6</ele>
        <time>2012-10-21T09:17:31Z</time>
      </trkpt>
      <trkpt lat="49.98535" lon="2.28839">
        <ele>104.8</ele>
        <time>2012-10-21T09:17:40Z</time>
      </trkpt>
      <trkpt lat="49.98548" lon="2.28848">
        <ele>104.1</ele>
        <time>2012-10-21T09:17:52Z</time>
      </trkpt>
      <trkpt lat="49.9856" lon="2.28857">
        <ele>98.7</ele>
        <time>2012-10-21T09:18:02Z</time>
      </trkpt>
      <trkpt lat="49.98574" lon="2.28866">
        <ele>100.6</ele>
        <time>2012-10-21T09:18:14Z</time>
      </trkpt>
      <trkpt lat="49.98587" lon="2.28874">
        <ele>102</ele>
        <time>2012-10-21T09:18:22Z</time>
      </trkpt>
      <trkpt lat="49.986" lon="2.28881">
        <ele>99</ele>
        <time>2012-10-21T09:18:33Z</time>
      </trkpt>
      <trkpt lat="49.98613" lon="2.28889">
        <ele>100.4</ele>
        <time>2012-10-21T09:18:42Z</time>
      </trkpt>
      <trkpt lat="49.98626" lon="2.28898">
        <ele>99.6</ele>
        <time>2012-10-21T09:18:53Z</time>
      </trkpt>
      <trkpt lat="49.98638" lon="2.2891">
        <ele>98.1</ele>
        <time>2012-10-21T09:19:02Z</time>
      </trkpt>
      <trkpt lat="49.98649" lon="2.28922">
        <ele>99.1</ele>
        <time>2012-10-21T09:19:12Z</time>
      </trkpt>
      <trkpt lat="49.98661" lon="2.28936">
        <ele>100.1</ele>
        <time>2012-10-21T09:19:22Z</time>
      </trkpt>
      <trkpt lat="49.9867" lon="2.28952">
        <ele>97.5</ele>
        <time>2012-10-21T09:19:31Z</time>
      </trkpt>
      <trkpt lat="49.98678" lon="2.28969">
        <ele>100.6</ele>
        <time>2012-10-21T09:19:41Z</time>
      </trkpt>
      <trkpt lat="49.98687" lon="2.28986">
        <ele>102.6</ele>
        <time>2012-10-21T09:19:52Z</time>
      </trkpt>
      <trkpt lat="49.987" lon="2.29">
        <ele>102.8</ele>
        <time>2012-10-21T09:20:02Z</time>
      </trkpt>
      <trkpt lat="49.98711" lon="2.29018">
        <ele>106.7</ele>
        <time>2012-10-21T09:20:14Z</time>
      </trkpt>
      <trkpt lat="49.98721" lon="2.29035">
        <ele>103.6</ele>
        <time>2012-10-21T09:20:26Z</time>
      </trkpt>
      <trkpt lat="49.98731" lon="2.29051">
        <ele>105.3</ele>
        <time>2012-10-21T09:20:33Z</time>
      </trkpt>
      <trkpt lat="49.98741" lon="2.29065">
        <ele>107.1</ele>
        <time>2012-10-21T09:20:42Z</time>
      </trkpt>
      <trkpt lat="49.98752" lon="2.29084">
        <ele>107.3</ele>
        <time>2012-10-21T09:20:52Z</time>
      </trkpt>
      <trkpt lat="49.98758" lon="2.29104">
        <ele>109</ele>
        <time>2012-10-21T09:21:01Z</time>
      </trkpt>
      <trkpt lat="49.98768" lon="2.2912">
        <ele>110</ele>
        <time>2012-10-21T09:21:11Z</time>
      </trkpt>
      <trkpt lat="49.98778" lon="2.29134">
        <ele>108.9</ele>
        <time>2012-10-21T09:21:21Z</time>
      </trkpt>
      <trkpt lat="49.98785" lon="2.29156">
        <ele>109.6</ele>
        <time>2012-10-21T09:21:34Z</time>
      </trkpt>
      <trkpt lat="49.98795" lon="2.29173">
        <ele>107</ele>
        <time>2012-10-21T09:21:50Z</time>
      </trkpt>
      <trkpt lat="49.98813" lon="2.29179">
        <ele>109.7</ele>
        <time>2012-10-21T09:22:04Z</time>
      </trkpt>
      <trkpt lat="49.98823" lon="2.29186">
        <ele>109.4</ele>
        <time>2012-10-21T09:22:11Z</time>
      </trkpt>
      <trkpt lat="49.98833" lon="2.29201">
        <ele>100.9</ele>
        <time>2012-10-21T09:22:25Z</time>
      </trkpt>
      <trkpt lat="49.98848" lon="2.29211">
        <ele>102.1</ele>
        <time>2012-10-21T09:22:39Z</time>
      </trkpt>
      <trkpt lat="49.98864" lon="2.29211">
        <ele>91.6</ele>
        <time>2012-10-21T09:22:48Z</time>
      </trkpt>
      <trkpt lat="49.9888" lon="2.29219">
        <ele>94.5</ele>
        <time>2012-10-21T09:23:00Z</time>
      </trkpt>
      <trkpt lat="49.98894" lon="2.29226">
        <ele>96.8</ele>
        <time>2012-10-21T09:23:10Z</time>
      </trkpt>
      <trkpt lat="49.98906" lon="2.29241">
        <ele>101.6</ele>
        <time>2012-10-21T09:23:21Z</time>
      </trkpt>
      <trkpt lat="49.98918" lon="2.29256">
        <ele>104.6</ele>
        <time>2012-10-21T09:23:28Z</time>
      </trkpt>
      <trkpt lat="49.9892" lon="2.29259">
        <ele>105.5</ele>
        <time>2012-10-21T09:23:30Z</time>
      </trkpt>
      <trkpt lat="49.98934" lon="2.29263">
        <ele>104.7</ele>
        <time>2012-10-21T09:23:45Z</time>
      </trkpt>
      <trkpt lat="49.98946" lon="2.29276">
        <ele>105.2</ele>
        <time>2012-10-21T09:23:53Z</time>
      </trkpt>
      <trkpt lat="49.98956" lon="2.29291">
        <ele>108</ele>
        <time>2012-10-21T09:24:02Z</time>
      </trkpt>
      <trkpt lat="49.98967" lon="2.29306">
        <ele>105.9</ele>
        <time>2012-10-21T09:24:13Z</time>
      </trkpt>
      <trkpt lat="49.98979" lon="2.29318">
        <ele>106</ele>
        <time>2012-10-21T09:24:24Z</time>
      </trkpt>
      <trkpt lat="49.98989" lon="2.29335">
        <ele>109.8</ele>
        <time>2012-10-21T09:24:36Z</time>
      </trkpt>
      <trkpt lat="49.99001" lon="2.29347">
        <ele>107.8</ele>
        <time>2012-10-21T09:24:46Z</time>
      </trkpt>
      <trkpt lat="49.99012" lon="2.29358">
        <ele>111.4</ele>
        <time>2012-10-21T09:24:54Z</time>
      </trkpt>
      <trkpt lat="49.99024" lon="2.29368">
        <ele>114.8</ele>
        <time>2012-10-21T09:25:02Z</time>
      </trkpt>
      <trkpt lat="49.99035" lon="2.29387">
        <ele>116.7</ele>
        <time>2012-10-21T09:25:12Z</time>
      </trkpt>
      <trkpt lat="49.99044" lon="2.29404">
        <ele>115.1</ele>
        <time>2012-10-21T09:25:23Z</time>
      </trkpt>
      <trkpt lat="49.99055" lon="2.29417">
        <ele>105.1</ele>
        <time>2012-10-21T09:25:35Z</time>
      </trkpt>
      <trkpt lat="49.99067" lon="2.29427">
        <ele>106.8</ele>
        <time>2012-10-21T09:25:45Z</time>
      </trkpt>
      <trkpt lat="49.99079" lon="2.2944">
        <ele>110.4</ele>
        <time>2012-10-21T09:25:53Z</time>
      </trkpt>
      <trkpt lat="49.99095" lon="2.29443">
        <ele>112.2</ele>
        <time>2012-10-21T09:26:02Z</time>
      </trkpt>
      <trkpt lat="49.99105" lon="2.29447">
        <ele>113.2</ele>
        <time>2012-10-21T09:26:07Z</time>
      </trkpt>
      <trkpt lat="49.99117" lon="2.29458">
        <ele>115.8</ele>
        <time>2012-10-21T09:26:20Z</time>
      </trkpt>
      <trkpt lat="49.99131" lon="2.29465">
        <ele>113.3</ele>
        <time>2012-10-21T09:26:32Z</time>
      </trkpt>
      <trkpt lat="49.99146" lon="2.29476">
        <ele>117.9</ele>
        <time>2012-10-21T09:26:44Z</time>
      </trkpt>
      <trkpt lat="49.9916" lon="2.29484">
        <ele>111.1</ele>
        <time>2012-10-21T09:26:55Z</time>
      </trkpt>
      <trkpt lat="49.99172" lon="2.29496">
        <ele>111.3</ele>
        <time>2012-10-21T09:27:06Z</time>
      </trkpt>
      <trkpt lat="49.99188" lon="2.29519">
        <ele>117.2</ele>
        <time>2012-10-21T09:27:30Z</time>
      </trkpt>
      <trkpt lat="49.99188" lon="2.29519">
        <ele>117.2</ele>
        <time>2012-10-21T09:28:33Z</time>
      </trkpt>
      <trkpt lat="49.99192" lon="2.29532">
        <ele>120.2</ele>
        <time>2012-10-21T09:28:36Z</time>
      </trkpt>
      <trkpt lat="49.99185" lon="2.29514">
        <ele>111.6</ele>
        <time>2012-10-21T09:28:44Z</time>
      </trkpt>
      <trkpt lat="49.99172" lon="2.29506">
        <ele>101.2</ele>
        <time>2012-10-21T09:29:01Z</time>
      </trkpt>
      <trkpt lat="49.99159" lon="2.29496">
        <ele>107</ele>
        <time>2012-10-21T09:29:16Z</time>
      </trkpt>
      <trkpt lat="49.99146" lon="2.29487">
        <ele>103</ele>
        <time>2012-10-21T09:29:29Z</time>
      </trkpt>
      <trkpt lat="49.99133" lon="2.29475">
        <ele>97.7</ele>
        <time>2012-10-21T09:29:42Z</time>
      </trkpt>
      <trkpt lat="49.9912" lon="2.29468">
        <ele>102.6</ele>
        <time>2012-10-21T09:29:56Z</time>
      </trkpt>
      <trkpt lat="49.99104" lon="2.29458">
        <ele>101.2</ele>
        <time>2012-10-21T09:30:21Z</time>
      </trkpt>
      <trkpt lat="49.99104" lon="2.29458">
        <ele>101.2</ele>
        <time>2012-10-21T09:33:11Z</time>
      </trkpt>
      <trkpt lat="49.99102" lon="2.29461">
        <ele>99.9</ele>
        <time>2012-10-21T09:33:14Z</time>
      </trkpt>
      <trkpt lat="49.99115" lon="2.2947">
        <ele>101.9</ele>
        <time>2012-10-21T09:33:27Z</time>
      </trkpt>
      <trkpt lat="49.99128" lon="2.29479">
        <ele>103.2</ele>
        <time>2012-10-21T09:33:36Z</time>
      </trkpt>
      <trkpt lat="49.9914" lon="2.29485">
        <ele>105</ele>
        <time>2012-10-21T09:33:49Z</time>
      </trkpt>
      <trkpt lat="49.99155" lon="2.29493">
        <ele>105.4</ele>
        <time>2012-10-21T09:33:58Z</time>
      </trkpt>
      <trkpt lat="49.99166" lon="2.29506">
        <ele>98.4</ele>
        <time>2012-10-21T09:34:08Z</time>
      </trkpt>
      <trkpt lat="49.99179" lon="2.29513">
        <ele>98</ele>
        <time>2012-10-21T09:34:18Z</time>
      </trkpt>
      <trkpt lat="49.99191" lon="2.29521">
        <ele>102.9</ele>
        <time>2012-10-21T09:34:27Z</time>
      </trkpt>
      <trkpt lat="49.99205" lon="2.29528">
        <ele>107.2</ele>
        <time>2012-10-21T09:34:35Z</time>
      </trkpt>
      <trkpt lat="49.99222" lon="2.29528">
        <ele>111</ele>
        <time>2012-10-21T09:34:42Z</time>
      </trkpt>
      <trkpt lat="49.99237" lon="2.29519">
        <ele>108.4</ele>
        <time>2012-10-21T09:34:54Z</time>
      </trkpt>
      <trkpt lat="49.99247" lon="2.29502">
        <ele>104.1</ele>
        <time>2012-10-21T09:35:04Z</time>
      </trkpt>
      <trkpt lat="49.9926" lon="2.29497">
        <ele>108.7</ele>
        <time>2012-10-21T09:35:14Z</time>
      </trkpt>
      <trkpt lat="49.99271" lon="2.29481">
        <ele>111.8</ele>
        <time>2012-10-21T09:35:22Z</time>
      </trkpt>
      <trkpt lat="49.99284" lon="2.29473">
        <ele>117.7</ele>
        <time>2012-10-21T09:35:41Z</time>
      </trkpt>
      <trkpt lat="49.993" lon="2.29477">
        <ele>117.8</ele>
        <time>2012-10-21T09:35:49Z</time>
      </trkpt>
      <trkpt lat="49.99313" lon="2.2949">
        <ele>117.9</ele>
        <time>2012-10-21T09:35:58Z</time>
      </trkpt>
      <trkpt lat="49.99324" lon="2.29502">
        <ele>114.6</ele>
        <time>2012-10-21T09:36:08Z</time>
      </trkpt>
      <trkpt lat="49.99337" lon="2.29513">
        <ele>113</ele>
        <time>2012-10-21T09:36:19Z</time>
      </trkpt>
      <trkpt lat="49.99349" lon="2.29524">
        <ele>111.4</ele>
        <time>2012-10-21T09:36:30Z</time>
      </trkpt>
      <trkpt lat="49.99362" lon="2.29535">
        <ele>110.6</ele>
        <time>2012-10-21T09:36:41Z</time>
      </trkpt>
      <trkpt lat="49.99375" lon="2.29544">
        <ele>113</ele>
        <time>2012-10-21T09:36:51Z</time>
      </trkpt>
      <trkpt lat="49.99387" lon="2.29555">
        <ele>112.3</ele>
        <time>2012-10-21T09:36:59Z</time>
      </trkpt>
      <trkpt lat="49.99396" lon="2.2957">
        <ele>117</ele>
        <time>2012-10-21T09:37:11Z</time>
      </trkpt>
      <trkpt lat="49.99394" lon="2.29592">
        <ele>113.8</ele>
        <time>2012-10-21T09:37:22Z</time>
      </trkpt>
      <trkpt lat="49.99386" lon="2.29609">
        <ele>109.9</ele>
        <time>2012-10-21T09:37:31Z</time>
      </trkpt>
      <trkpt lat="49.99378" lon="2.29626">
        <ele>113.2</ele>
        <time>2012-10-21T09:37:40Z</time>
      </trkpt>
      <trkpt lat="49.9938" lon="2.29651">
        <ele>115.5</ele>
        <time>2012-10-21T09:37:52Z</time>
      </trkpt>
      <trkpt lat="49.99389" lon="2.29667">
        <ele>116.5</ele>
        <time>2012-10-21T09:38:03Z</time>
      </trkpt>
      <trkpt lat="49.99398" lon="2.29681">
        <ele>117.3</ele>
        <time>2012-10-21T09:38:13Z</time>
      </trkpt>
      <trkpt lat="49.99404" lon="2.297">
        <ele>118</ele>
        <time>2012-10-21T09:38:21Z</time>
      </trkpt>
      <trkpt lat="49.99413" lon="2.29716">
        <ele>116.2</ele>
        <time>2012-10-21T09:38:31Z</time>
      </trkpt>
      <trkpt lat="49.9942" lon="2.29734">
        <ele>121.3</ele>
        <time>2012-10-21T09:38:41Z</time>
      </trkpt>
      <trkpt lat="49.99429" lon="2.29754">
        <ele>118</ele>
        <time>2012-10-21T09:38:51Z</time>
      </trkpt>
      <trkpt lat="49.99438" lon="2.2977">
        <ele>114.7</ele>
        <time>2012-10-21T09:39:01Z</time>
      </trkpt>
      <trkpt lat="49.99446" lon="2.29789">
        <ele>109.6</ele>
        <time>2012-10-21T09:39:11Z</time>
      </trkpt>
      <trkpt lat="49.99453" lon="2.29808">
        <ele>119.3</ele>
        <time>2012-10-21T09:39:21Z</time>
      </trkpt>
      <trkpt lat="49.99462" lon="2.29826">
        <ele>117.8</ele>
        <time>2012-10-21T09:39:31Z</time>
      </trkpt>
      <trkpt lat="49.99468" lon="2.29849">
        <ele>116.1</ele>
        <time>2012-10-21T09:39:43Z</time>
      </trkpt>
      <trkpt lat="49.99475" lon="2.29867">
        <ele>118.2</ele>
        <time>2012-10-21T09:39:52Z</time>
      </trkpt>
      <trkpt lat="49.99483" lon="2.29886">
        <ele>118.8</ele>
        <time>2012-10-21T09:40:02Z</time>
      </trkpt>
      <trkpt lat="49.99491" lon="2.29904">
        <ele>116.7</ele>
        <time>2012-10-21T09:40:13Z</time>
      </trkpt>
      <trkpt lat="49.99499" lon="2.29922">
        <ele>118.5</ele>
        <time>2012-10-21T09:40:23Z</time>
      </trkpt>
      <trkpt lat="49.99506" lon="2.29941">
        <ele>121</ele>
        <time>2012-10-21T09:40:33Z</time>
      </trkpt>
      <trkpt lat="49.99515" lon="2.29958">
        <ele>118.1</ele>
        <time>2012-10-21T09:40:42Z</time>
      </trkpt>
      <trkpt lat="49.99525" lon="2.29975">
        <ele>119</ele>
        <time>2012-10-21T09:40:51Z</time>
      </trkpt>
      <trkpt lat="49.99534" lon="2.29993">
        <ele>118.9</ele>
        <time>2012-10-21T09:41:01Z</time>
      </trkpt>
      <trkpt lat="49.99542" lon="2.3001">
        <ele>120.9</ele>
        <time>2012-10-21T09:41:10Z</time>
      </trkpt>
      <trkpt lat="49.9955" lon="2.30028">
        <ele>124.5</ele>
        <time>2012-10-21T09:41:19Z</time>
      </trkpt>
      <trkpt lat="49.99559" lon="2.30044">
        <ele>124.7</ele>
        <time>2012-10-21T09:41:28Z</time>
      </trkpt>
      <trkpt lat="49.99567" lon="2.30064">
        <ele>122.2</ele>
        <time>2012-10-21T09:41:39Z</time>
      </trkpt>
      <trkpt lat="49.99574" lon="2.30083">
        <ele>120.9</ele>
        <time>2012-10-21T09:41:48Z</time>
      </trkpt>
      <trkpt lat="49.99579" lon="2.30107">
        <ele>120.3</ele>
        <time>2012-10-21T09:42:04Z</time>
      </trkpt>
      <trkpt lat="49.99586" lon="2.30127">
        <ele>119.9</ele>
        <time>2012-10-21T09:42:14Z</time>
      </trkpt>
      <trkpt lat="49.99593" lon="2.30147">
        <ele>119.6</ele>
        <time>2012-10-21T09:42:23Z</time>
      </trkpt>
      <trkpt lat="49.996" lon="2.30167">
        <ele>122.8</ele>
        <time>2012-10-21T09:42:32Z</time>
      </trkpt>
      <trkpt lat="49.99609" lon="2.30184">
        <ele>126.8</ele>
        <time>2012-10-21T09:42:44Z</time>
      </trkpt>
      <trkpt lat="49.99618" lon="2.302">
        <ele>122.3</ele>
        <time>2012-10-21T09:42:52Z</time>
      </trkpt>
      <trkpt lat="49.99626" lon="2.30219">
        <ele>124.3</ele>
        <time>2012-10-21T09:43:03Z</time>
      </trkpt>
      <trkpt lat="49.99637" lon="2.30234">
        <ele>122.9</ele>
        <time>2012-10-21T09:43:11Z</time>
      </trkpt>
      <trkpt lat="49.9964" lon="2.30255">
        <ele>120.2</ele>
        <time>2012-10-21T09:43:19Z</time>
      </trkpt>
      <trkpt lat="49.99641" lon="2.30276">
        <ele>116.9</ele>
        <time>2012-10-21T09:43:27Z</time>
      </trkpt>
      <trkpt lat="49.99642" lon="2.30297">
        <ele>110.7</ele>
        <time>2012-10-21T09:43:36Z</time>
      </trkpt>
      <trkpt lat="49.99641" lon="2.3032">
        <ele>112.3</ele>
        <time>2012-10-21T09:43:45Z</time>
      </trkpt>
      <trkpt lat="49.99642" lon="2.30341">
        <ele>114.3</ele>
        <time>2012-10-21T09:43:52Z</time>
      </trkpt>
      <trkpt lat="49.99641" lon="2.30362">
        <ele>113.2</ele>
        <time>2012-10-21T09:44:01Z</time>
      </trkpt>
      <trkpt lat="49.9964" lon="2.30384">
        <ele>109.5</ele>
        <time>2012-10-21T09:44:12Z</time>
      </trkpt>
      <trkpt lat="49.99643" lon="2.30409">
        <ele>109.8</ele>
        <time>2012-10-21T09:44:23Z</time>
      </trkpt>
      <trkpt lat="49.99646" lon="2.30431">
        <ele>113.5</ele>
        <time>2012-10-21T09:44:34Z</time>
      </trkpt>
      <trkpt lat="49.99649" lon="2.30452">
        <ele>114.1</ele>
        <time>2012-10-21T09:44:45Z</time>
      </trkpt>
      <trkpt lat="49.99652" lon="2.30473">
        <ele>114.7</ele>
        <time>2012-10-21T09:44:54Z</time>
      </trkpt>
      <trkpt lat="49.99655" lon="2.30493">
        <ele>115.5</ele>
        <time>2012-10-21T09:45:04Z</time>
      </trkpt>
      <trkpt lat="49.9966" lon="2.30515">
        <ele>116.1</ele>
        <time>2012-10-21T09:45:15Z</time>
      </trkpt>
      <trkpt lat="49.99665" lon="2.30535">
        <ele>115</ele>
        <time>2012-10-21T09:45:26Z</time>
      </trkpt>
      <trkpt lat="49.99671" lon="2.30555">
        <ele>113.3</ele>
        <time>2012-10-21T09:45:36Z</time>
      </trkpt>
      <trkpt lat="49.99676" lon="2.30575">
        <ele>111.7</ele>
        <time>2012-10-21T09:45:45Z</time>
      </trkpt>
      <trkpt lat="49.9968" lon="2.30597">
        <ele>112.2</ele>
        <time>2012-10-21T09:45:55Z</time>
      </trkpt>
      <trkpt lat="49.99685" lon="2.30617">
        <ele>113.6</ele>
        <time>2012-10-21T09:46:06Z</time>
      </trkpt>
      <trkpt lat="49.99692" lon="2.30637">
        <ele>114.8</ele>
        <time>2012-10-21T09:46:15Z</time>
      </trkpt>
      <trkpt lat="49.997" lon="2.30661">
        <ele>113.5</ele>
        <time>2012-10-21T09:46:26Z</time>
      </trkpt>
      <trkpt lat="49.99708" lon="2.30689">
        <ele>111</ele>
        <time>2012-10-21T09:46:39Z</time>
      </trkpt>
      <trkpt lat="49.99716" lon="2.30707">
        <ele>108.2</ele>
        <time>2012-10-21T09:46:54Z</time>
      </trkpt>
      <trkpt lat="49.99721" lon="2.30728">
        <ele>110</ele>
        <time>2012-10-21T09:47:04Z</time>
      </trkpt>
      <trkpt lat="49.99729" lon="2.30745">
        <ele>112.1</ele>
        <time>2012-10-21T09:47:16Z</time>
      </trkpt>
      <trkpt lat="49.99738" lon="2.30764">
        <ele>115.4</ele>
        <time>2012-10-21T09:47:26Z</time>
      </trkpt>
      <trkpt lat="49.9974" lon="2.30785">
        <ele>110.4</ele>
        <time>2012-10-21T09:47:35Z</time>
      </trkpt>
      <trkpt lat="49.99743" lon="2.30806">
        <ele>112.3</ele>
        <time>2012-10-21T09:47:44Z</time>
      </trkpt>
      <trkpt lat="49.99741" lon="2.30828">
        <ele>114</ele>
        <time>2012-10-21T09:47:54Z</time>
      </trkpt>
      <trkpt lat="49.99747" lon="2.30846">
        <ele>114.3</ele>
        <time>2012-10-21T09:47:56Z</time>
      </trkpt>
      <trkpt lat="49.99753" lon="2.30867">
        <ele>116.3</ele>
        <time>2012-10-21T09:48:09Z</time>
      </trkpt>
      <trkpt lat="49.99757" lon="2.30869">
        <ele>117.1</ele>
        <time>2012-10-21T09:48:11Z</time>
      </trkpt>
      <trkpt lat="49.99751" lon="2.30891">
        <ele>121.4</ele>
        <time>2012-10-21T09:48:21Z</time>
      </trkpt>
      <trkpt lat="49.99756" lon="2.30911">
        <ele>116.9</ele>
        <time>2012-10-21T09:48:30Z</time>
      </trkpt>
      <trkpt lat="49.9976" lon="2.30932">
        <ele>114.7</ele>
        <time>2012-10-21T09:48:42Z</time>
      </trkpt>
      <trkpt lat="49.99764" lon="2.30955">
        <ele>114.4</ele>
        <time>2012-10-21T09:48:53Z</time>
      </trkpt>
      <trkpt lat="49.99768" lon="2.30976">
        <ele>116.3</ele>
        <time>2012-10-21T09:49:05Z</time>
      </trkpt>
      <trkpt lat="49.99771" lon="2.31">
        <ele>120</ele>
        <time>2012-10-21T09:49:18Z</time>
      </trkpt>
      <trkpt lat="49.99773" lon="2.31022">
        <ele>123.8</ele>
        <time>2012-10-21T09:49:28Z</time>
      </trkpt>
      <trkpt lat="49.99776" lon="2.31047">
        <ele>126.3</ele>
        <time>2012-10-21T09:49:37Z</time>
      </trkpt>
      <trkpt lat="49.99777" lon="2.31089">
        <ele>123.9</ele>
        <time>2012-10-21T09:49:58Z</time>
      </trkpt>
      <trkpt lat="49.99777" lon="2.31089">
        <ele>123.9</ele>
        <time>2012-10-21T09:52:51Z</time>
      </trkpt>
      <trkpt lat="49.99784" lon="2.31111">
        <ele>123.1</ele>
        <time>2012-10-21T09:52:57Z</time>
      </trkpt>
      <trkpt lat="49.99788" lon="2.31131">
        <ele>124.2</ele>
        <time>2012-10-21T09:53:07Z</time>
      </trkpt>
      <trkpt lat="49.9979" lon="2.31152">
        <ele>121.2</ele>
        <time>2012-10-21T09:53:19Z</time>
      </trkpt>
      <trkpt lat="49.99793" lon="2.31172">
        <ele>123.3</ele>
        <time>2012-10-21T09:53:29Z</time>
      </trkpt>
      <trkpt lat="49.99797" lon="2.31197">
        <ele>123.8</ele>
        <time>2012-10-21T09:53:39Z</time>
      </trkpt>
      <trkpt lat="49.99799" lon="2.31218">
        <ele>124</ele>
        <time>2012-10-21T09:53:51Z</time>
      </trkpt>
      <trkpt lat="49.99802" lon="2.31238">
        <ele>125.7</ele>
        <time>2012-10-21T09:54:01Z</time>
      </trkpt>
      <trkpt lat="49.99804" lon="2.3126">
        <ele>124.5</ele>
        <time>2012-10-21T09:54:11Z</time>
      </trkpt>
      <trkpt lat="49.99806" lon="2.31282">
        <ele>123.1</ele>
        <time>2012-10-21T09:54:22Z</time>
      </trkpt>
      <trkpt lat="49.99809" lon="2.31304">
        <ele>127.3</ele>
        <time>2012-10-21T09:54:32Z</time>
      </trkpt>
      <trkpt lat="49.99811" lon="2.31325">
        <ele>125.9</ele>
        <time>2012-10-21T09:54:41Z</time>
      </trkpt>
      <trkpt lat="49.99813" lon="2.31349">
        <ele>124.3</ele>
        <time>2012-10-21T09:54:52Z</time>
      </trkpt>
      <trkpt lat="49.99814" lon="2.31371">
        <ele>122.8</ele>
        <time>2012-10-21T09:55:02Z</time>
      </trkpt>
      <trkpt lat="49.99816" lon="2.31392">
        <ele>121.2</ele>
        <time>2012-10-21T09:55:12Z</time>
      </trkpt>
      <trkpt lat="49.99818" lon="2.31413">
        <ele>124.3</ele>
        <time>2012-10-21T09:55:22Z</time>
      </trkpt>
      <trkpt lat="49.9982" lon="2.31435">
        <ele>130.5</ele>
        <time>2012-10-21T09:55:32Z</time>
      </trkpt>
      <trkpt lat="49.99821" lon="2.31458">
        <ele>127.8</ele>
        <time>2012-10-21T09:55:42Z</time>
      </trkpt>
      <trkpt lat="49.9982" lon="2.31479">
        <ele>124.4</ele>
        <time>2012-10-21T09:55:52Z</time>
      </trkpt>
      <trkpt lat="49.9982" lon="2.31502">
        <ele>126.8</ele>
        <time>2012-10-21T09:56:04Z</time>
      </trkpt>
      <trkpt lat="49.99822" lon="2.31523">
        <ele>124.9</ele>
        <time>2012-10-21T09:56:14Z</time>
      </trkpt>
      <trkpt lat="49.99827" lon="2.31543">
        <ele>122.2</ele>
        <time>2012-10-21T09:56:24Z</time>
      </trkpt>
      <trkpt lat="49.99832" lon="2.3157">
        <ele>124.8</ele>
        <time>2012-10-21T09:56:35Z</time>
      </trkpt>
      <trkpt lat="49.99837" lon="2.31591">
        <ele>123.4</ele>
        <time>2012-10-21T09:56:49Z</time>
      </trkpt>
      <trkpt lat="49.99841" lon="2.31612">
        <ele>124</ele>
        <time>2012-10-21T09:56:59Z</time>
      </trkpt>
      <trkpt lat="49.99843" lon="2.31634">
        <ele>126</ele>
        <time>2012-10-21T09:57:10Z</time>
      </trkpt>
      <trkpt lat="49.99849" lon="2.31656">
        <ele>130.9</ele>
        <time>2012-10-21T09:57:19Z</time>
      </trkpt>
      <trkpt lat="49.99855" lon="2.3168">
        <ele>117.5</ele>
        <time>2012-10-21T09:57:30Z</time>
      </trkpt>
      <trkpt lat="49.9986" lon="2.31701">
        <ele>120.1</ele>
        <time>2012-10-21T09:57:40Z</time>
      </trkpt>
      <trkpt lat="49.99861" lon="2.31724">
        <ele>127.8</ele>
        <time>2012-10-21T09:57:51Z</time>
      </trkpt>
      <trkpt lat="49.99861" lon="2.31746">
        <ele>129.3</ele>
        <time>2012-10-21T09:58:00Z</time>
      </trkpt>
      <trkpt lat="49.99855" lon="2.31766">
        <ele>130.6</ele>
        <time>2012-10-21T09:58:08Z</time>
      </trkpt>
      <trkpt lat="49.99852" lon="2.31787">
        <ele>133.1</ele>
        <time>2012-10-21T09:58:18Z</time>
      </trkpt>
      <trkpt lat="49.99846" lon="2.31808">
        <ele>127.6</ele>
        <time>2012-10-21T09:58:29Z</time>
      </trkpt>
      <trkpt lat="49.9984" lon="2.3183">
        <ele>130.7</ele>
        <time>2012-10-21T09:58:38Z</time>
      </trkpt>
      <trkpt lat="49.99829" lon="2.31847">
        <ele>124.4</ele>
        <time>2012-10-21T09:58:47Z</time>
      </trkpt>
      <trkpt lat="49.99819" lon="2.31862">
        <ele>121.9</ele>
        <time>2012-10-21T09:59:01Z</time>
      </trkpt>
      <trkpt lat="49.99808" lon="2.31876">
        <ele>124.3</ele>
        <time>2012-10-21T09:59:09Z</time>
      </trkpt>
      <trkpt lat="49.99798" lon="2.31892">
        <ele>124.9</ele>
        <time>2012-10-21T09:59:20Z</time>
      </trkpt>
      <trkpt lat="49.99787" lon="2.31904">
        <ele>125.4</ele>
        <time>2012-10-21T09:59:30Z</time>
      </trkpt>
      <trkpt lat="49.99773" lon="2.31913">
        <ele>126</ele>
        <time>2012-10-21T09:59:41Z</time>
      </trkpt>
      <trkpt lat="49.99759" lon="2.31919">
        <ele>125.5</ele>
        <time>2012-10-21T09:59:50Z</time>
      </trkpt>
      <trkpt lat="49.99749" lon="2.31919">
        <ele>120.7</ele>
        <time>2012-10-21T10:00:05Z</time>
      </trkpt>
      <trkpt lat="49.99735" lon="2.31915">
        <ele>122.8</ele>
        <time>2012-10-21T10:00:16Z</time>
      </trkpt>
      <trkpt lat="49.99722" lon="2.31915">
        <ele>127.4</ele>
        <time>2012-10-21T10:00:22Z</time>
      </trkpt>
      <trkpt lat="49.99706" lon="2.31916">
        <ele>127.7</ele>
        <time>2012-10-21T10:00:34Z</time>
      </trkpt>
      <trkpt lat="49.99693" lon="2.31909">
        <ele>120.5</ele>
        <time>2012-10-21T10:00:45Z</time>
      </trkpt>
      <trkpt lat="49.99679" lon="2.31913">
        <ele>121.1</ele>
        <time>2012-10-21T10:01:10Z</time>
      </trkpt>
    </trkseg>
  </trk>
</gpx>